<?xml version="1.0" encoding="UTF-8" standalone="no" ?>
<gpx xmlns="http://www.topografix.com/GPX/1/1" xmlns:xsi="http://www.w3.org/2001/XMLSchema-instance" xsi:schemaLocation="http://www.topografix.com/GPX/1/1 http://www.topografix.com/GPX/1/1/gpx.xsd" version="1.1" creator="VisuGPX - https://www.visugpx.com">
  <metadata>
    <name>laroche 130Km</name>
    <desc><![CDATA[Laroche modifiée à partir de Rochefort]]></desc>
  </metadata>
  <wpt lat="50.60422" lon="5.4847">
    <ele>66.9</ele>
    <name><![CDATA[laroche139 2]]></name>
    <type><![CDATA[Generic]]></type>
  </wpt>
  <trk>
    <name><![CDATA[laroche139 2]]></name>
    <trkseg>
      <trkpt lat="50.60422" lon="5.4847">
        <ele>64</ele>
        <time>2019-08-22T16:30:23Z</time>
      </trkpt>
      <trkpt lat="50.60481" lon="5.48326">
        <ele>68</ele>
        <time>2019-08-22T16:30:29Z</time>
      </trkpt>
      <trkpt lat="50.60413" lon="5.48121">
        <ele>67</ele>
        <time>2019-08-22T16:30:47Z</time>
      </trkpt>
      <trkpt lat="50.60325" lon="5.47935">
        <ele>67</ele>
        <time>2019-08-22T16:30:56Z</time>
      </trkpt>
      <trkpt lat="50.60227" lon="5.47763">
        <ele>65</ele>
        <time>2019-08-22T16:31:04Z</time>
      </trkpt>
      <trkpt lat="50.60129" lon="5.47589">
        <ele>66</ele>
        <time>2019-08-22T16:31:20Z</time>
      </trkpt>
      <trkpt lat="50.60031" lon="5.47415">
        <ele>65</ele>
        <time>2019-08-22T16:31:38Z</time>
      </trkpt>
      <trkpt lat="50.59938" lon="5.47237">
        <ele>64</ele>
        <time>2019-08-22T16:31:54Z</time>
      </trkpt>
      <trkpt lat="50.59895" lon="5.47016">
        <ele>65</ele>
        <time>2019-08-22T16:32:12Z</time>
      </trkpt>
      <trkpt lat="50.59848" lon="5.46796">
        <ele>68</ele>
        <time>2019-08-22T16:32:14Z</time>
      </trkpt>
      <trkpt lat="50.59765" lon="5.46606">
        <ele>67</ele>
        <time>2019-08-22T16:32:22Z</time>
      </trkpt>
      <trkpt lat="50.59685" lon="5.46411">
        <ele>66</ele>
        <time>2019-08-22T16:32:27Z</time>
      </trkpt>
      <trkpt lat="50.5961" lon="5.46212">
        <ele>68</ele>
        <time>2019-08-22T16:32:47Z</time>
      </trkpt>
      <trkpt lat="50.59533" lon="5.46014">
        <ele>68</ele>
        <time>2019-08-22T16:32:49Z</time>
      </trkpt>
      <trkpt lat="50.59455" lon="5.45817">
        <ele>66</ele>
        <time>2019-08-22T16:33:05Z</time>
      </trkpt>
      <trkpt lat="50.59381" lon="5.45616">
        <ele>68</ele>
        <time>2019-08-22T16:33:07Z</time>
      </trkpt>
      <trkpt lat="50.59286" lon="5.45439">
        <ele>65</ele>
        <time>2019-08-22T16:33:19Z</time>
      </trkpt>
      <trkpt lat="50.5924" lon="5.45236">
        <ele>66</ele>
        <time>2019-08-22T16:33:38Z</time>
      </trkpt>
      <trkpt lat="50.59205" lon="5.45012">
        <ele>65</ele>
        <time>2019-08-22T16:33:53Z</time>
      </trkpt>
      <trkpt lat="50.59148" lon="5.448">
        <ele>63</ele>
        <time>2019-08-22T16:33:55Z</time>
      </trkpt>
      <trkpt lat="50.59061" lon="5.44613">
        <ele>66</ele>
        <time>2019-08-22T16:34:05Z</time>
      </trkpt>
      <trkpt lat="50.59009" lon="5.44397">
        <ele>69</ele>
        <time>2019-08-22T16:34:12Z</time>
      </trkpt>
      <trkpt lat="50.5897" lon="5.44174">
        <ele>69</ele>
        <time>2019-08-22T16:34:16Z</time>
      </trkpt>
      <trkpt lat="50.58939" lon="5.43947">
        <ele>65</ele>
        <time>2019-08-22T16:34:36Z</time>
      </trkpt>
      <trkpt lat="50.58907" lon="5.4372">
        <ele>68</ele>
        <time>2019-08-22T16:34:50Z</time>
      </trkpt>
      <trkpt lat="50.58887" lon="5.4349">
        <ele>76</ele>
        <time>2019-08-22T16:34:58Z</time>
      </trkpt>
      <trkpt lat="50.58863" lon="5.43262">
        <ele>64</ele>
        <time>2019-08-22T16:35:13Z</time>
      </trkpt>
      <trkpt lat="50.58809" lon="5.43046">
        <ele>67</ele>
        <time>2019-08-22T16:35:25Z</time>
      </trkpt>
      <trkpt lat="50.58755" lon="5.4283">
        <ele>63</ele>
        <time>2019-08-22T16:35:28Z</time>
      </trkpt>
      <trkpt lat="50.58702" lon="5.42614">
        <ele>64</ele>
        <time>2019-08-22T16:35:34Z</time>
      </trkpt>
      <trkpt lat="50.58674" lon="5.42386">
        <ele>64</ele>
        <time>2019-08-22T16:35:42Z</time>
      </trkpt>
      <trkpt lat="50.5865" lon="5.42157">
        <ele>64</ele>
        <time>2019-08-22T16:35:50Z</time>
      </trkpt>
      <trkpt lat="50.58626" lon="5.41928">
        <ele>67</ele>
        <time>2019-08-22T16:35:59Z</time>
      </trkpt>
      <trkpt lat="50.58608" lon="5.41698">
        <ele>65</ele>
        <time>2019-08-22T16:36:18Z</time>
      </trkpt>
      <trkpt lat="50.5859" lon="5.41475">
        <ele>68</ele>
        <time>2019-08-22T16:36:20Z</time>
      </trkpt>
      <trkpt lat="50.58489" lon="5.41307">
        <ele>67</ele>
        <time>2019-08-22T16:36:35Z</time>
      </trkpt>
      <trkpt lat="50.58393" lon="5.41131">
        <ele>70</ele>
        <time>2019-08-22T16:36:41Z</time>
      </trkpt>
      <trkpt lat="50.58307" lon="5.40942">
        <ele>70</ele>
        <time>2019-08-22T16:36:55Z</time>
      </trkpt>
      <trkpt lat="50.58231" lon="5.40743">
        <ele>67</ele>
        <time>2019-08-22T16:37:00Z</time>
      </trkpt>
      <trkpt lat="50.58157" lon="5.40543">
        <ele>67</ele>
        <time>2019-08-22T16:37:05Z</time>
      </trkpt>
      <trkpt lat="50.58081" lon="5.40345">
        <ele>66</ele>
        <time>2019-08-22T16:37:15Z</time>
      </trkpt>
      <trkpt lat="50.58007" lon="5.40144">
        <ele>65</ele>
        <time>2019-08-22T16:37:28Z</time>
      </trkpt>
      <trkpt lat="50.57936" lon="5.39941">
        <ele>66</ele>
        <time>2019-08-22T16:37:48Z</time>
      </trkpt>
      <trkpt lat="50.57897" lon="5.39737">
        <ele>66</ele>
        <time>2019-08-22T16:37:55Z</time>
      </trkpt>
      <trkpt lat="50.57945" lon="5.39538">
        <ele>69</ele>
        <time>2019-08-22T16:38:04Z</time>
      </trkpt>
      <trkpt lat="50.57869" lon="5.3934">
        <ele>71</ele>
        <time>2019-08-22T16:38:17Z</time>
      </trkpt>
      <trkpt lat="50.57832" lon="5.39127">
        <ele>77</ele>
        <time>2019-08-22T16:38:25Z</time>
      </trkpt>
      <trkpt lat="50.57731" lon="5.38958">
        <ele>88</ele>
        <time>2019-08-22T16:38:29Z</time>
      </trkpt>
      <trkpt lat="50.57635" lon="5.38782">
        <ele>93</ele>
        <time>2019-08-22T16:38:40Z</time>
      </trkpt>
      <trkpt lat="50.5754" lon="5.38605">
        <ele>81</ele>
        <time>2019-08-22T16:39:00Z</time>
      </trkpt>
      <trkpt lat="50.57438" lon="5.38437">
        <ele>83</ele>
        <time>2019-08-22T16:39:16Z</time>
      </trkpt>
      <trkpt lat="50.57341" lon="5.38263">
        <ele>82</ele>
        <time>2019-08-22T16:39:27Z</time>
      </trkpt>
      <trkpt lat="50.57259" lon="5.38071">
        <ele>74</ele>
        <time>2019-08-22T16:39:42Z</time>
      </trkpt>
      <trkpt lat="50.57174" lon="5.37882">
        <ele>75</ele>
        <time>2019-08-22T16:40:01Z</time>
      </trkpt>
      <trkpt lat="50.57095" lon="5.37688">
        <ele>76</ele>
        <time>2019-08-22T16:40:15Z</time>
      </trkpt>
      <trkpt lat="50.57025" lon="5.37483">
        <ele>70</ele>
        <time>2019-08-22T16:40:35Z</time>
      </trkpt>
      <trkpt lat="50.56956" lon="5.37278">
        <ele>73</ele>
        <time>2019-08-22T16:40:55Z</time>
      </trkpt>
      <trkpt lat="50.56893" lon="5.37069">
        <ele>83</ele>
        <time>2019-08-22T16:41:07Z</time>
      </trkpt>
      <trkpt lat="50.56842" lon="5.36852">
        <ele>78</ele>
        <time>2019-08-22T16:41:13Z</time>
      </trkpt>
      <trkpt lat="50.56786" lon="5.36637">
        <ele>69</ele>
        <time>2019-08-22T16:41:22Z</time>
      </trkpt>
      <trkpt lat="50.56736" lon="5.3642">
        <ele>82</ele>
        <time>2019-08-22T16:41:35Z</time>
      </trkpt>
      <trkpt lat="50.56693" lon="5.36198">
        <ele>72</ele>
        <time>2019-08-22T16:41:40Z</time>
      </trkpt>
      <trkpt lat="50.56638" lon="5.35983">
        <ele>77</ele>
        <time>2019-08-22T16:41:52Z</time>
      </trkpt>
      <trkpt lat="50.56578" lon="5.35771">
        <ele>78</ele>
        <time>2019-08-22T16:42:11Z</time>
      </trkpt>
      <trkpt lat="50.56516" lon="5.35561">
        <ele>68</ele>
        <time>2019-08-22T16:42:20Z</time>
      </trkpt>
      <trkpt lat="50.56455" lon="5.35349">
        <ele>65</ele>
        <time>2019-08-22T16:42:30Z</time>
      </trkpt>
      <trkpt lat="50.56394" lon="5.35138">
        <ele>69</ele>
        <time>2019-08-22T16:42:33Z</time>
      </trkpt>
      <trkpt lat="50.56329" lon="5.34931">
        <ele>73</ele>
        <time>2019-08-22T16:42:51Z</time>
      </trkpt>
      <trkpt lat="50.56257" lon="5.34729">
        <ele>75</ele>
        <time>2019-08-22T16:43:00Z</time>
      </trkpt>
      <trkpt lat="50.56182" lon="5.34529">
        <ele>76</ele>
        <time>2019-08-22T16:43:16Z</time>
      </trkpt>
      <trkpt lat="50.56109" lon="5.34327">
        <ele>71</ele>
        <time>2019-08-22T16:43:34Z</time>
      </trkpt>
      <trkpt lat="50.56037" lon="5.34125">
        <ele>69</ele>
        <time>2019-08-22T16:43:50Z</time>
      </trkpt>
      <trkpt lat="50.55942" lon="5.33956">
        <ele>75</ele>
        <time>2019-08-22T16:44:03Z</time>
      </trkpt>
      <trkpt lat="50.55846" lon="5.33782">
        <ele>70</ele>
        <time>2019-08-22T16:44:11Z</time>
      </trkpt>
      <trkpt lat="50.55757" lon="5.33598">
        <ele>77</ele>
        <time>2019-08-22T16:44:26Z</time>
      </trkpt>
      <trkpt lat="50.55668" lon="5.33414">
        <ele>83</ele>
        <time>2019-08-22T16:44:46Z</time>
      </trkpt>
      <trkpt lat="50.55565" lon="5.33249">
        <ele>89</ele>
        <time>2019-08-22T16:44:51Z</time>
      </trkpt>
      <trkpt lat="50.55461" lon="5.33087">
        <ele>93</ele>
        <time>2019-08-22T16:44:57Z</time>
      </trkpt>
      <trkpt lat="50.55366" lon="5.3291">
        <ele>75</ele>
        <time>2019-08-22T16:45:05Z</time>
      </trkpt>
      <trkpt lat="50.5529" lon="5.32712">
        <ele>71</ele>
        <time>2019-08-22T16:45:16Z</time>
      </trkpt>
      <trkpt lat="50.55195" lon="5.32535">
        <ele>71</ele>
        <time>2019-08-22T16:45:33Z</time>
      </trkpt>
      <trkpt lat="50.55096" lon="5.32363">
        <ele>72</ele>
        <time>2019-08-22T16:45:39Z</time>
      </trkpt>
      <trkpt lat="50.54998" lon="5.32191">
        <ele>71</ele>
        <time>2019-08-22T16:45:42Z</time>
      </trkpt>
      <trkpt lat="50.549" lon="5.32017">
        <ele>73</ele>
        <time>2019-08-22T16:45:46Z</time>
      </trkpt>
      <trkpt lat="50.54808" lon="5.3185">
        <ele>76</ele>
        <time>2019-08-22T16:45:52Z</time>
      </trkpt>
      <trkpt lat="50.54737" lon="5.3169">
        <ele>74</ele>
        <time>2019-08-22T16:46:11Z</time>
      </trkpt>
      <trkpt lat="50.5465" lon="5.31503">
        <ele>72</ele>
        <time>2019-08-22T16:46:21Z</time>
      </trkpt>
      <trkpt lat="50.54567" lon="5.31311">
        <ele>71</ele>
        <time>2019-08-22T16:46:32Z</time>
      </trkpt>
      <trkpt lat="50.54483" lon="5.31121">
        <ele>75</ele>
        <time>2019-08-22T16:46:35Z</time>
      </trkpt>
      <trkpt lat="50.54399" lon="5.30931">
        <ele>71</ele>
        <time>2019-08-22T16:46:50Z</time>
      </trkpt>
      <trkpt lat="50.54315" lon="5.3074">
        <ele>69</ele>
        <time>2019-08-22T16:47:03Z</time>
      </trkpt>
      <trkpt lat="50.54233" lon="5.30548">
        <ele>68</ele>
        <time>2019-08-22T16:47:23Z</time>
      </trkpt>
      <trkpt lat="50.54169" lon="5.3034">
        <ele>69</ele>
        <time>2019-08-22T16:47:38Z</time>
      </trkpt>
      <trkpt lat="50.54138" lon="5.30113">
        <ele>70</ele>
        <time>2019-08-22T16:47:47Z</time>
      </trkpt>
      <trkpt lat="50.54109" lon="5.29886">
        <ele>68</ele>
        <time>2019-08-22T16:48:05Z</time>
      </trkpt>
      <trkpt lat="50.54079" lon="5.29659">
        <ele>70</ele>
        <time>2019-08-22T16:48:24Z</time>
      </trkpt>
      <trkpt lat="50.5405" lon="5.29432">
        <ele>69</ele>
        <time>2019-08-22T16:48:32Z</time>
      </trkpt>
      <trkpt lat="50.54018" lon="5.29205">
        <ele>72</ele>
        <time>2019-08-22T16:48:39Z</time>
      </trkpt>
      <trkpt lat="50.5399" lon="5.28978">
        <ele>72</ele>
        <time>2019-08-22T16:48:44Z</time>
      </trkpt>
      <trkpt lat="50.5396" lon="5.28751">
        <ele>72</ele>
        <time>2019-08-22T16:49:03Z</time>
      </trkpt>
      <trkpt lat="50.53932" lon="5.28523">
        <ele>69</ele>
        <time>2019-08-22T16:49:08Z</time>
      </trkpt>
      <trkpt lat="50.53904" lon="5.28296">
        <ele>69</ele>
        <time>2019-08-22T16:49:15Z</time>
      </trkpt>
      <trkpt lat="50.53875" lon="5.28068">
        <ele>71</ele>
        <time>2019-08-22T16:49:21Z</time>
      </trkpt>
      <trkpt lat="50.53846" lon="5.27841">
        <ele>68</ele>
        <time>2019-08-22T16:49:38Z</time>
      </trkpt>
      <trkpt lat="50.5382" lon="5.27613">
        <ele>75</ele>
        <time>2019-08-22T16:49:48Z</time>
      </trkpt>
      <trkpt lat="50.5383" lon="5.27382">
        <ele>77</ele>
        <time>2019-08-22T16:49:50Z</time>
      </trkpt>
      <trkpt lat="50.53815" lon="5.27154">
        <ele>88</ele>
        <time>2019-08-22T16:50:10Z</time>
      </trkpt>
      <trkpt lat="50.53797" lon="5.26927">
        <ele>94</ele>
        <time>2019-08-22T16:50:25Z</time>
      </trkpt>
      <trkpt lat="50.53759" lon="5.26708">
        <ele>72</ele>
        <time>2019-08-22T16:50:35Z</time>
      </trkpt>
      <trkpt lat="50.53751" lon="5.26479">
        <ele>78</ele>
        <time>2019-08-22T16:50:55Z</time>
      </trkpt>
      <trkpt lat="50.53776" lon="5.26252">
        <ele>73</ele>
        <time>2019-08-22T16:51:00Z</time>
      </trkpt>
      <trkpt lat="50.53753" lon="5.26024">
        <ele>70</ele>
        <time>2019-08-22T16:51:19Z</time>
      </trkpt>
      <trkpt lat="50.5371" lon="5.25803">
        <ele>71</ele>
        <time>2019-08-22T16:51:33Z</time>
      </trkpt>
      <trkpt lat="50.53663" lon="5.25583">
        <ele>74</ele>
        <time>2019-08-22T16:51:45Z</time>
      </trkpt>
      <trkpt lat="50.53605" lon="5.2537">
        <ele>75</ele>
        <time>2019-08-22T16:51:56Z</time>
      </trkpt>
      <trkpt lat="50.53545" lon="5.25159">
        <ele>88</ele>
        <time>2019-08-22T16:52:13Z</time>
      </trkpt>
      <trkpt lat="50.53484" lon="5.24947">
        <ele>87</ele>
        <time>2019-08-22T16:52:19Z</time>
      </trkpt>
      <trkpt lat="50.53417" lon="5.24741">
        <ele>82</ele>
        <time>2019-08-22T16:52:24Z</time>
      </trkpt>
      <trkpt lat="50.53339" lon="5.24545">
        <ele>78</ele>
        <time>2019-08-22T16:52:33Z</time>
      </trkpt>
      <trkpt lat="50.5324" lon="5.24373">
        <ele>77</ele>
        <time>2019-08-22T16:52:43Z</time>
      </trkpt>
      <trkpt lat="50.53127" lon="5.24237">
        <ele>84</ele>
        <time>2019-08-22T16:52:48Z</time>
      </trkpt>
      <trkpt lat="50.52993" lon="5.24144">
        <ele>69</ele>
        <time>2019-08-22T16:53:04Z</time>
      </trkpt>
      <trkpt lat="50.52851" lon="5.2408">
        <ele>70</ele>
        <time>2019-08-22T16:53:16Z</time>
      </trkpt>
      <trkpt lat="50.5271" lon="5.24016">
        <ele>72</ele>
        <time>2019-08-22T16:53:18Z</time>
      </trkpt>
      <trkpt lat="50.52568" lon="5.23951">
        <ele>73</ele>
        <time>2019-08-22T16:53:37Z</time>
      </trkpt>
      <trkpt lat="50.52427" lon="5.23888">
        <ele>74</ele>
        <time>2019-08-22T16:53:40Z</time>
      </trkpt>
      <trkpt lat="50.52286" lon="5.23821">
        <ele>68</ele>
        <time>2019-08-22T16:53:49Z</time>
      </trkpt>
      <trkpt lat="50.52145" lon="5.23753">
        <ele>73</ele>
        <time>2019-08-22T16:54:06Z</time>
      </trkpt>
      <trkpt lat="50.52015" lon="5.23645">
        <ele>73</ele>
        <time>2019-08-22T16:54:23Z</time>
      </trkpt>
      <trkpt lat="50.51899" lon="5.23504">
        <ele>74</ele>
        <time>2019-08-22T16:54:25Z</time>
      </trkpt>
      <trkpt lat="50.51845" lon="5.23292">
        <ele>74</ele>
        <time>2019-08-22T16:54:38Z</time>
      </trkpt>
      <trkpt lat="50.51977" lon="5.23223">
        <ele>78</ele>
        <time>2019-08-22T16:54:49Z</time>
      </trkpt>
      <trkpt lat="50.5192" lon="5.23011">
        <ele>76</ele>
        <time>2019-08-22T16:54:54Z</time>
      </trkpt>
      <trkpt lat="50.51904" lon="5.22783">
        <ele>74</ele>
        <time>2019-08-22T16:55:08Z</time>
      </trkpt>
      <trkpt lat="50.51922" lon="5.22559">
        <ele>71</ele>
        <time>2019-08-22T16:55:25Z</time>
      </trkpt>
      <trkpt lat="50.52067" lon="5.2255">
        <ele>78</ele>
        <time>2019-08-22T16:55:42Z</time>
      </trkpt>
      <trkpt lat="50.52206" lon="5.22584">
        <ele>76</ele>
        <time>2019-08-22T16:55:59Z</time>
      </trkpt>
      <trkpt lat="50.52346" lon="5.22611">
        <ele>73</ele>
        <time>2019-08-22T16:56:13Z</time>
      </trkpt>
      <trkpt lat="50.52478" lon="5.22522">
        <ele>70</ele>
        <time>2019-08-22T16:56:32Z</time>
      </trkpt>
      <trkpt lat="50.52585" lon="5.22363">
        <ele>72</ele>
        <time>2019-08-22T16:56:39Z</time>
      </trkpt>
      <trkpt lat="50.52678" lon="5.22183">
        <ele>69</ele>
        <time>2019-08-22T16:56:58Z</time>
      </trkpt>
      <trkpt lat="50.52752" lon="5.21983">
        <ele>70</ele>
        <time>2019-08-22T16:57:09Z</time>
      </trkpt>
      <trkpt lat="50.52819" lon="5.21778">
        <ele>71</ele>
        <time>2019-08-22T16:57:18Z</time>
      </trkpt>
      <trkpt lat="50.52855" lon="5.21553">
        <ele>73</ele>
        <time>2019-08-22T16:57:24Z</time>
      </trkpt>
      <trkpt lat="50.52896" lon="5.21348">
        <ele>66</ele>
        <time>2019-08-22T16:57:34Z</time>
      </trkpt>
      <trkpt lat="50.53036" lon="5.21277">
        <ele>70</ele>
        <time>2019-08-22T16:57:49Z</time>
      </trkpt>
      <trkpt lat="50.53156" lon="5.21146">
        <ele>75</ele>
        <time>2019-08-22T16:57:55Z</time>
      </trkpt>
      <trkpt lat="50.53259" lon="5.2098">
        <ele>72</ele>
        <time>2019-08-22T16:57:57Z</time>
      </trkpt>
      <trkpt lat="50.53341" lon="5.20788">
        <ele>74</ele>
        <time>2019-08-22T16:58:16Z</time>
      </trkpt>
      <trkpt lat="50.53317" lon="5.20689">
        <ele>75</ele>
        <time>2019-08-22T16:58:34Z</time>
      </trkpt>
      <trkpt lat="50.53206" lon="5.20537">
        <ele>75</ele>
        <time>2019-08-22T16:58:40Z</time>
      </trkpt>
      <trkpt lat="50.53092" lon="5.2039">
        <ele>75</ele>
        <time>2019-08-22T16:58:42Z</time>
      </trkpt>
      <trkpt lat="50.52977" lon="5.20246">
        <ele>72</ele>
        <time>2019-08-22T16:58:56Z</time>
      </trkpt>
      <trkpt lat="50.52859" lon="5.20107">
        <ele>71</ele>
        <time>2019-08-22T16:59:01Z</time>
      </trkpt>
      <trkpt lat="50.52738" lon="5.19977">
        <ele>70</ele>
        <time>2019-08-22T16:59:17Z</time>
      </trkpt>
      <trkpt lat="50.52633" lon="5.19818">
        <ele>72</ele>
        <time>2019-08-22T16:59:22Z</time>
      </trkpt>
      <trkpt lat="50.52523" lon="5.19666">
        <ele>71</ele>
        <time>2019-08-22T16:59:39Z</time>
      </trkpt>
      <trkpt lat="50.52402" lon="5.19532">
        <ele>72</ele>
        <time>2019-08-22T16:59:57Z</time>
      </trkpt>
      <trkpt lat="50.52285" lon="5.19391">
        <ele>72</ele>
        <time>2019-08-22T16:59:59Z</time>
      </trkpt>
      <trkpt lat="50.52174" lon="5.1924">
        <ele>71</ele>
        <time>2019-08-22T17:00:09Z</time>
      </trkpt>
      <trkpt lat="50.52032" lon="5.19182">
        <ele>71</ele>
        <time>2019-08-22T17:00:19Z</time>
      </trkpt>
      <trkpt lat="50.51922" lon="5.19034">
        <ele>68</ele>
        <time>2019-08-22T17:00:23Z</time>
      </trkpt>
      <trkpt lat="50.5186" lon="5.18825">
        <ele>70</ele>
        <time>2019-08-22T17:00:40Z</time>
      </trkpt>
      <trkpt lat="50.51818" lon="5.18603">
        <ele>73</ele>
        <time>2019-08-22T17:00:50Z</time>
      </trkpt>
      <trkpt lat="50.51786" lon="5.18377">
        <ele>70</ele>
        <time>2019-08-22T17:00:53Z</time>
      </trkpt>
      <trkpt lat="50.51753" lon="5.18151">
        <ele>77</ele>
        <time>2019-08-22T17:01:12Z</time>
      </trkpt>
      <trkpt lat="50.51716" lon="5.17927">
        <ele>78</ele>
        <time>2019-08-22T17:01:14Z</time>
      </trkpt>
      <trkpt lat="50.51678" lon="5.17703">
        <ele>71</ele>
        <time>2019-08-22T17:01:20Z</time>
      </trkpt>
      <trkpt lat="50.51636" lon="5.17481">
        <ele>82</ele>
        <time>2019-08-22T17:01:39Z</time>
      </trkpt>
      <trkpt lat="50.51588" lon="5.17262">
        <ele>77</ele>
        <time>2019-08-22T17:01:49Z</time>
      </trkpt>
      <trkpt lat="50.51529" lon="5.1705">
        <ele>71</ele>
        <time>2019-08-22T17:02:03Z</time>
      </trkpt>
      <trkpt lat="50.51473" lon="5.16836">
        <ele>70</ele>
        <time>2019-08-22T17:02:10Z</time>
      </trkpt>
      <trkpt lat="50.51431" lon="5.16615">
        <ele>69</ele>
        <time>2019-08-22T17:02:21Z</time>
      </trkpt>
      <trkpt lat="50.51391" lon="5.16391">
        <ele>70</ele>
        <time>2019-08-22T17:02:33Z</time>
      </trkpt>
      <trkpt lat="50.51357" lon="5.16166">
        <ele>69</ele>
        <time>2019-08-22T17:02:53Z</time>
      </trkpt>
      <trkpt lat="50.5131" lon="5.15947">
        <ele>75</ele>
        <time>2019-08-22T17:03:10Z</time>
      </trkpt>
      <trkpt lat="50.51261" lon="5.15728">
        <ele>70</ele>
        <time>2019-08-22T17:03:24Z</time>
      </trkpt>
      <trkpt lat="50.51218" lon="5.15507">
        <ele>71</ele>
        <time>2019-08-22T17:03:31Z</time>
      </trkpt>
      <trkpt lat="50.5118" lon="5.15283">
        <ele>71</ele>
        <time>2019-08-22T17:03:50Z</time>
      </trkpt>
      <trkpt lat="50.5114" lon="5.15062">
        <ele>72</ele>
        <time>2019-08-22T17:04:01Z</time>
      </trkpt>
      <trkpt lat="50.51066" lon="5.14862">
        <ele>73</ele>
        <time>2019-08-22T17:04:14Z</time>
      </trkpt>
      <trkpt lat="50.50987" lon="5.14667">
        <ele>71</ele>
        <time>2019-08-22T17:04:22Z</time>
      </trkpt>
      <trkpt lat="50.50913" lon="5.14466">
        <ele>70</ele>
        <time>2019-08-22T17:04:42Z</time>
      </trkpt>
      <trkpt lat="50.50836" lon="5.14269">
        <ele>71</ele>
        <time>2019-08-22T17:04:55Z</time>
      </trkpt>
      <trkpt lat="50.50787" lon="5.14053">
        <ele>72</ele>
        <time>2019-08-22T17:05:03Z</time>
      </trkpt>
      <trkpt lat="50.50746" lon="5.13832">
        <ele>73</ele>
        <time>2019-08-22T17:05:15Z</time>
      </trkpt>
      <trkpt lat="50.50683" lon="5.13623">
        <ele>73</ele>
        <time>2019-08-22T17:05:22Z</time>
      </trkpt>
      <trkpt lat="50.50619" lon="5.13414">
        <ele>71</ele>
        <time>2019-08-22T17:05:26Z</time>
      </trkpt>
      <trkpt lat="50.50556" lon="5.13205">
        <ele>72</ele>
        <time>2019-08-22T17:05:31Z</time>
      </trkpt>
      <trkpt lat="50.50469" lon="5.13021">
        <ele>75</ele>
        <time>2019-08-22T17:05:44Z</time>
      </trkpt>
      <trkpt lat="50.50417" lon="5.12812">
        <ele>72</ele>
        <time>2019-08-22T17:06:01Z</time>
      </trkpt>
      <trkpt lat="50.50366" lon="5.12595">
        <ele>73</ele>
        <time>2019-08-22T17:06:19Z</time>
      </trkpt>
      <trkpt lat="50.50311" lon="5.12379">
        <ele>73</ele>
        <time>2019-08-22T17:06:31Z</time>
      </trkpt>
      <trkpt lat="50.50233" lon="5.12185">
        <ele>73</ele>
        <time>2019-08-22T17:06:34Z</time>
      </trkpt>
      <trkpt lat="50.50176" lon="5.11972">
        <ele>73</ele>
        <time>2019-08-22T17:06:41Z</time>
      </trkpt>
      <trkpt lat="50.50123" lon="5.11756">
        <ele>73</ele>
        <time>2019-08-22T17:06:46Z</time>
      </trkpt>
      <trkpt lat="50.5007" lon="5.11539">
        <ele>73</ele>
        <time>2019-08-22T17:07:03Z</time>
      </trkpt>
      <trkpt lat="50.50016" lon="5.11324">
        <ele>71</ele>
        <time>2019-08-22T17:07:10Z</time>
      </trkpt>
      <trkpt lat="50.49951" lon="5.11117">
        <ele>72</ele>
        <time>2019-08-22T17:07:27Z</time>
      </trkpt>
      <trkpt lat="50.49859" lon="5.10936">
        <ele>78</ele>
        <time>2019-08-22T17:07:32Z</time>
      </trkpt>
      <trkpt lat="50.49773" lon="5.10749">
        <ele>78</ele>
        <time>2019-08-22T17:07:38Z</time>
      </trkpt>
      <trkpt lat="50.49712" lon="5.1054">
        <ele>76</ele>
        <time>2019-08-22T17:07:57Z</time>
      </trkpt>
      <trkpt lat="50.49678" lon="5.10315">
        <ele>75</ele>
        <time>2019-08-22T17:08:09Z</time>
      </trkpt>
      <trkpt lat="50.4964" lon="5.10092">
        <ele>74</ele>
        <time>2019-08-22T17:08:21Z</time>
      </trkpt>
      <trkpt lat="50.49602" lon="5.09869">
        <ele>73</ele>
        <time>2019-08-22T17:08:39Z</time>
      </trkpt>
      <trkpt lat="50.49574" lon="5.09654">
        <ele>75</ele>
        <time>2019-08-22T17:08:42Z</time>
      </trkpt>
      <trkpt lat="50.49528" lon="5.09518">
        <ele>76</ele>
        <time>2019-08-22T17:08:49Z</time>
      </trkpt>
      <trkpt lat="50.49397" lon="5.09578">
        <ele>72</ele>
        <time>2019-08-22T17:08:57Z</time>
      </trkpt>
      <trkpt lat="50.49307" lon="5.09503">
        <ele>71</ele>
        <time>2019-08-22T17:09:11Z</time>
      </trkpt>
      <trkpt lat="50.4927" lon="5.0928">
        <ele>73</ele>
        <time>2019-08-22T17:09:31Z</time>
      </trkpt>
      <trkpt lat="50.4923" lon="5.09057">
        <ele>72</ele>
        <time>2019-08-22T17:09:34Z</time>
      </trkpt>
      <trkpt lat="50.49204" lon="5.08829">
        <ele>73</ele>
        <time>2019-08-22T17:09:43Z</time>
      </trkpt>
      <trkpt lat="50.49181" lon="5.08601">
        <ele>73</ele>
        <time>2019-08-22T17:10:01Z</time>
      </trkpt>
      <trkpt lat="50.49183" lon="5.08369">
        <ele>74</ele>
        <time>2019-08-22T17:10:16Z</time>
      </trkpt>
      <trkpt lat="50.49142" lon="5.08167">
        <ele>74</ele>
        <time>2019-08-22T17:10:22Z</time>
      </trkpt>
      <trkpt lat="50.49142" lon="5.07936">
        <ele>76</ele>
        <time>2019-08-22T17:10:29Z</time>
      </trkpt>
      <trkpt lat="50.49146" lon="5.07704">
        <ele>74</ele>
        <time>2019-08-22T17:10:32Z</time>
      </trkpt>
      <trkpt lat="50.49151" lon="5.07473">
        <ele>72</ele>
        <time>2019-08-22T17:10:41Z</time>
      </trkpt>
      <trkpt lat="50.49155" lon="5.07241">
        <ele>75</ele>
        <time>2019-08-22T17:10:47Z</time>
      </trkpt>
      <trkpt lat="50.49159" lon="5.0701">
        <ele>74</ele>
        <time>2019-08-22T17:10:53Z</time>
      </trkpt>
      <trkpt lat="50.4918" lon="5.06782">
        <ele>78</ele>
        <time>2019-08-22T17:11:11Z</time>
      </trkpt>
      <trkpt lat="50.49241" lon="5.06572">
        <ele>78</ele>
        <time>2019-08-22T17:11:18Z</time>
      </trkpt>
      <trkpt lat="50.49303" lon="5.06361">
        <ele>78</ele>
        <time>2019-08-22T17:11:36Z</time>
      </trkpt>
      <trkpt lat="50.49349" lon="5.06143">
        <ele>86</ele>
        <time>2019-08-22T17:11:42Z</time>
      </trkpt>
      <trkpt lat="50.49369" lon="5.05914">
        <ele>92</ele>
        <time>2019-08-22T17:12:00Z</time>
      </trkpt>
      <trkpt lat="50.49389" lon="5.05684">
        <ele>75</ele>
        <time>2019-08-22T17:12:16Z</time>
      </trkpt>
      <trkpt lat="50.49408" lon="5.05455">
        <ele>82</ele>
        <time>2019-08-22T17:12:35Z</time>
      </trkpt>
      <trkpt lat="50.49427" lon="5.05225">
        <ele>87</ele>
        <time>2019-08-22T17:12:50Z</time>
      </trkpt>
      <trkpt lat="50.49447" lon="5.04996">
        <ele>95</ele>
        <time>2019-08-22T17:13:09Z</time>
      </trkpt>
      <trkpt lat="50.49445" lon="5.04765">
        <ele>101</ele>
        <time>2019-08-22T17:13:20Z</time>
      </trkpt>
      <trkpt lat="50.4944" lon="5.04533">
        <ele>93</ele>
        <time>2019-08-22T17:13:29Z</time>
      </trkpt>
      <trkpt lat="50.49428" lon="5.04303">
        <ele>86</ele>
        <time>2019-08-22T17:13:36Z</time>
      </trkpt>
      <trkpt lat="50.49392" lon="5.04079">
        <ele>79</ele>
        <time>2019-08-22T17:13:48Z</time>
      </trkpt>
      <trkpt lat="50.49342" lon="5.03861">
        <ele>79</ele>
        <time>2019-08-22T17:13:54Z</time>
      </trkpt>
      <trkpt lat="50.49291" lon="5.03644">
        <ele>85</ele>
        <time>2019-08-22T17:14:05Z</time>
      </trkpt>
      <trkpt lat="50.49239" lon="5.03427">
        <ele>81</ele>
        <time>2019-08-22T17:14:25Z</time>
      </trkpt>
      <trkpt lat="50.49162" lon="5.0323">
        <ele>80</ele>
        <time>2019-08-22T17:14:34Z</time>
      </trkpt>
      <trkpt lat="50.49079" lon="5.03039">
        <ele>78</ele>
        <time>2019-08-22T17:14:46Z</time>
      </trkpt>
      <trkpt lat="50.48995" lon="5.02848">
        <ele>79</ele>
        <time>2019-08-22T17:15:00Z</time>
      </trkpt>
      <trkpt lat="50.48894" lon="5.02682">
        <ele>78</ele>
        <time>2019-08-22T17:15:03Z</time>
      </trkpt>
      <trkpt lat="50.48783" lon="5.0253">
        <ele>82</ele>
        <time>2019-08-22T17:15:17Z</time>
      </trkpt>
      <trkpt lat="50.48673" lon="5.02376">
        <ele>94</ele>
        <time>2019-08-22T17:15:28Z</time>
      </trkpt>
      <trkpt lat="50.48562" lon="5.02225">
        <ele>89</ele>
        <time>2019-08-22T17:15:43Z</time>
      </trkpt>
      <trkpt lat="50.48444" lon="5.02085">
        <ele>94</ele>
        <time>2019-08-22T17:15:51Z</time>
      </trkpt>
      <trkpt lat="50.48326" lon="5.01948">
        <ele>83</ele>
        <time>2019-08-22T17:15:56Z</time>
      </trkpt>
      <trkpt lat="50.482" lon="5.01828">
        <ele>93</ele>
        <time>2019-08-22T17:16:10Z</time>
      </trkpt>
      <trkpt lat="50.48069" lon="5.01721">
        <ele>92</ele>
        <time>2019-08-22T17:16:24Z</time>
      </trkpt>
      <trkpt lat="50.47939" lon="5.01613">
        <ele>91</ele>
        <time>2019-08-22T17:16:36Z</time>
      </trkpt>
      <trkpt lat="50.47808" lon="5.01507">
        <ele>80</ele>
        <time>2019-08-22T17:16:48Z</time>
      </trkpt>
      <trkpt lat="50.47678" lon="5.01398">
        <ele>85</ele>
        <time>2019-08-22T17:17:00Z</time>
      </trkpt>
      <trkpt lat="50.47551" lon="5.01281">
        <ele>77</ele>
        <time>2019-08-22T17:17:16Z</time>
      </trkpt>
      <trkpt lat="50.47437" lon="5.01135">
        <ele>76</ele>
        <time>2019-08-22T17:17:29Z</time>
      </trkpt>
      <trkpt lat="50.47322" lon="5.00989">
        <ele>78</ele>
        <time>2019-08-22T17:17:49Z</time>
      </trkpt>
      <trkpt lat="50.47215" lon="5.0083">
        <ele>81</ele>
        <time>2019-08-22T17:17:53Z</time>
      </trkpt>
      <trkpt lat="50.47108" lon="5.00671">
        <ele>112</ele>
        <time>2019-08-22T17:18:07Z</time>
      </trkpt>
      <trkpt lat="50.47001" lon="5.00512">
        <ele>82</ele>
        <time>2019-08-22T17:18:22Z</time>
      </trkpt>
      <trkpt lat="50.46903" lon="5.00341">
        <ele>77</ele>
        <time>2019-08-22T17:18:26Z</time>
      </trkpt>
      <trkpt lat="50.46833" lon="5.00138">
        <ele>89</ele>
        <time>2019-08-22T17:18:42Z</time>
      </trkpt>
      <trkpt lat="50.46763" lon="4.99934">
        <ele>105</ele>
        <time>2019-08-22T17:18:44Z</time>
      </trkpt>
      <trkpt lat="50.46712" lon="4.99717">
        <ele>84</ele>
        <time>2019-08-22T17:18:55Z</time>
      </trkpt>
      <trkpt lat="50.46684" lon="4.99492">
        <ele>95</ele>
        <time>2019-08-22T17:19:06Z</time>
      </trkpt>
      <trkpt lat="50.46634" lon="4.99344">
        <ele>80</ele>
        <time>2019-08-22T17:19:26Z</time>
      </trkpt>
      <trkpt lat="50.46545" lon="4.99508">
        <ele>105</ele>
        <time>2019-08-22T17:19:33Z</time>
      </trkpt>
      <trkpt lat="50.46521" lon="4.99734">
        <ele>82</ele>
        <time>2019-08-22T17:19:47Z</time>
      </trkpt>
      <trkpt lat="50.46534" lon="4.99962">
        <ele>85</ele>
        <time>2019-08-22T17:19:51Z</time>
      </trkpt>
      <trkpt lat="50.46418" lon="5.00063">
        <ele>98</ele>
        <time>2019-08-22T17:20:04Z</time>
      </trkpt>
      <trkpt lat="50.46276" lon="5.00005">
        <ele>99</ele>
        <time>2019-08-22T17:20:14Z</time>
      </trkpt>
      <trkpt lat="50.46131" lon="5.00006">
        <ele>97</ele>
        <time>2019-08-22T17:20:18Z</time>
      </trkpt>
      <trkpt lat="50.46011" lon="5.00137">
        <ele>99</ele>
        <time>2019-08-22T17:20:31Z</time>
      </trkpt>
      <trkpt lat="50.45876" lon="5.00202">
        <ele>97</ele>
        <time>2019-08-22T17:20:48Z</time>
      </trkpt>
      <trkpt lat="50.45742" lon="5.00109">
        <ele>114</ele>
        <time>2019-08-22T17:20:57Z</time>
      </trkpt>
      <trkpt lat="50.45609" lon="5.00187">
        <ele>107</ele>
        <time>2019-08-22T17:21:12Z</time>
      </trkpt>
      <trkpt lat="50.45494" lon="5.00331">
        <ele>113</ele>
        <time>2019-08-22T17:21:20Z</time>
      </trkpt>
      <trkpt lat="50.45376" lon="5.00467">
        <ele>120</ele>
        <time>2019-08-22T17:21:36Z</time>
      </trkpt>
      <trkpt lat="50.45293" lon="5.00655">
        <ele>124</ele>
        <time>2019-08-22T17:21:51Z</time>
      </trkpt>
      <trkpt lat="50.45305" lon="5.00882">
        <ele>125</ele>
        <time>2019-08-22T17:22:08Z</time>
      </trkpt>
      <trkpt lat="50.45242" lon="5.01089">
        <ele>123</ele>
        <time>2019-08-22T17:22:26Z</time>
      </trkpt>
      <trkpt lat="50.45111" lon="5.0116">
        <ele>123</ele>
        <time>2019-08-22T17:22:42Z</time>
      </trkpt>
      <trkpt lat="50.44977" lon="5.01067">
        <ele>127</ele>
        <time>2019-08-22T17:22:51Z</time>
      </trkpt>
      <trkpt lat="50.44834" lon="5.01037">
        <ele>120</ele>
        <time>2019-08-22T17:23:04Z</time>
      </trkpt>
      <trkpt lat="50.44705" lon="5.00929">
        <ele>122</ele>
        <time>2019-08-22T17:23:16Z</time>
      </trkpt>
      <trkpt lat="50.44563" lon="5.00869">
        <ele>112</ele>
        <time>2019-08-22T17:23:32Z</time>
      </trkpt>
      <trkpt lat="50.4447" lon="5.01018">
        <ele>129</ele>
        <time>2019-08-22T17:23:45Z</time>
      </trkpt>
      <trkpt lat="50.4444" lon="5.01238">
        <ele>124</ele>
        <time>2019-08-22T17:23:51Z</time>
      </trkpt>
      <trkpt lat="50.44297" lon="5.01264">
        <ele>131</ele>
        <time>2019-08-22T17:23:56Z</time>
      </trkpt>
      <trkpt lat="50.44177" lon="5.0116">
        <ele>124</ele>
        <time>2019-08-22T17:24:16Z</time>
      </trkpt>
      <trkpt lat="50.44045" lon="5.01066">
        <ele>135</ele>
        <time>2019-08-22T17:24:21Z</time>
      </trkpt>
      <trkpt lat="50.43929" lon="5.00923">
        <ele>133</ele>
        <time>2019-08-22T17:24:28Z</time>
      </trkpt>
      <trkpt lat="50.43819" lon="5.00769">
        <ele>135</ele>
        <time>2019-08-22T17:24:30Z</time>
      </trkpt>
      <trkpt lat="50.43734" lon="5.00585">
        <ele>136</ele>
        <time>2019-08-22T17:24:35Z</time>
      </trkpt>
      <trkpt lat="50.43597" lon="5.006">
        <ele>128</ele>
        <time>2019-08-22T17:24:53Z</time>
      </trkpt>
      <trkpt lat="50.43461" lon="5.00679">
        <ele>124</ele>
        <time>2019-08-22T17:24:55Z</time>
      </trkpt>
      <trkpt lat="50.43323" lon="5.0074">
        <ele>143</ele>
        <time>2019-08-22T17:25:01Z</time>
      </trkpt>
      <trkpt lat="50.43306" lon="5.00964">
        <ele>156</ele>
        <time>2019-08-22T17:25:15Z</time>
      </trkpt>
      <trkpt lat="50.4334" lon="5.01189">
        <ele>149</ele>
        <time>2019-08-22T17:25:20Z</time>
      </trkpt>
      <trkpt lat="50.43312" lon="5.01392">
        <ele>157</ele>
        <time>2019-08-22T17:25:40Z</time>
      </trkpt>
      <trkpt lat="50.43185" lon="5.01484">
        <ele>154</ele>
        <time>2019-08-22T17:25:58Z</time>
      </trkpt>
      <trkpt lat="50.43085" lon="5.01639">
        <ele>154</ele>
        <time>2019-08-22T17:26:03Z</time>
      </trkpt>
      <trkpt lat="50.42963" lon="5.01762">
        <ele>156</ele>
        <time>2019-08-22T17:26:17Z</time>
      </trkpt>
      <trkpt lat="50.42845" lon="5.019">
        <ele>162</ele>
        <time>2019-08-22T17:26:35Z</time>
      </trkpt>
      <trkpt lat="50.42748" lon="5.0202">
        <ele>162</ele>
        <time>2019-08-22T17:26:54Z</time>
      </trkpt>
      <trkpt lat="50.42636" lon="5.0217">
        <ele>165</ele>
        <time>2019-08-22T17:27:10Z</time>
      </trkpt>
      <trkpt lat="50.42617" lon="5.02346">
        <ele>168</ele>
        <time>2019-08-22T17:27:21Z</time>
      </trkpt>
      <trkpt lat="50.42655" lon="5.02569">
        <ele>176</ele>
        <time>2019-08-22T17:27:26Z</time>
      </trkpt>
      <trkpt lat="50.42594" lon="5.02719">
        <ele>178</ele>
        <time>2019-08-22T17:27:42Z</time>
      </trkpt>
      <trkpt lat="50.42486" lon="5.02871">
        <ele>184</ele>
        <time>2019-08-22T17:27:59Z</time>
      </trkpt>
      <trkpt lat="50.42379" lon="5.03031">
        <ele>193</ele>
        <time>2019-08-22T17:28:08Z</time>
      </trkpt>
      <trkpt lat="50.42309" lon="5.03213">
        <ele>212</ele>
        <time>2019-08-22T17:28:12Z</time>
      </trkpt>
      <trkpt lat="50.42316" lon="5.03444">
        <ele>224</ele>
        <time>2019-08-22T17:28:27Z</time>
      </trkpt>
      <trkpt lat="50.42251" lon="5.03619">
        <ele>240</ele>
        <time>2019-08-22T17:28:47Z</time>
      </trkpt>
      <trkpt lat="50.42129" lon="5.03743">
        <ele>257</ele>
        <time>2019-08-22T17:29:01Z</time>
      </trkpt>
      <trkpt lat="50.42004" lon="5.03866">
        <ele>264</ele>
        <time>2019-08-22T17:29:10Z</time>
      </trkpt>
      <trkpt lat="50.41879" lon="5.03988">
        <ele>260</ele>
        <time>2019-08-22T17:29:20Z</time>
      </trkpt>
      <trkpt lat="50.41754" lon="5.04111">
        <ele>256</ele>
        <time>2019-08-22T17:29:32Z</time>
      </trkpt>
      <trkpt lat="50.41657" lon="5.04276">
        <ele>263</ele>
        <time>2019-08-22T17:29:46Z</time>
      </trkpt>
      <trkpt lat="50.41592" lon="5.04484">
        <ele>272</ele>
        <time>2019-08-22T17:29:56Z</time>
      </trkpt>
      <trkpt lat="50.41526" lon="5.04691">
        <ele>279</ele>
        <time>2019-08-22T17:30:09Z</time>
      </trkpt>
      <trkpt lat="50.4146" lon="5.04897">
        <ele>284</ele>
        <time>2019-08-22T17:30:11Z</time>
      </trkpt>
      <trkpt lat="50.41395" lon="5.05105">
        <ele>285</ele>
        <time>2019-08-22T17:30:27Z</time>
      </trkpt>
      <trkpt lat="50.41337" lon="5.05316">
        <ele>275</ele>
        <time>2019-08-22T17:30:34Z</time>
      </trkpt>
      <trkpt lat="50.41306" lon="5.05541">
        <ele>269</ele>
        <time>2019-08-22T17:30:48Z</time>
      </trkpt>
      <trkpt lat="50.41275" lon="5.05767">
        <ele>263</ele>
        <time>2019-08-22T17:31:02Z</time>
      </trkpt>
      <trkpt lat="50.41244" lon="5.05994">
        <ele>262</ele>
        <time>2019-08-22T17:31:08Z</time>
      </trkpt>
      <trkpt lat="50.41213" lon="5.0622">
        <ele>265</ele>
        <time>2019-08-22T17:31:16Z</time>
      </trkpt>
      <trkpt lat="50.41203" lon="5.06447">
        <ele>260</ele>
        <time>2019-08-22T17:31:21Z</time>
      </trkpt>
      <trkpt lat="50.41218" lon="5.06677">
        <ele>259</ele>
        <time>2019-08-22T17:31:30Z</time>
      </trkpt>
      <trkpt lat="50.41231" lon="5.06907">
        <ele>246</ele>
        <time>2019-08-22T17:31:46Z</time>
      </trkpt>
      <trkpt lat="50.4118" lon="5.07112">
        <ele>230</ele>
        <time>2019-08-22T17:32:01Z</time>
      </trkpt>
      <trkpt lat="50.41053" lon="5.07192">
        <ele>233</ele>
        <time>2019-08-22T17:32:04Z</time>
      </trkpt>
      <trkpt lat="50.40925" lon="5.07081">
        <ele>250</ele>
        <time>2019-08-22T17:32:18Z</time>
      </trkpt>
      <trkpt lat="50.4082" lon="5.07105">
        <ele>261</ele>
        <time>2019-08-22T17:32:33Z</time>
      </trkpt>
      <trkpt lat="50.40741" lon="5.07284">
        <ele>263</ele>
        <time>2019-08-22T17:32:51Z</time>
      </trkpt>
      <trkpt lat="50.40744" lon="5.07507">
        <ele>251</ele>
        <time>2019-08-22T17:32:54Z</time>
      </trkpt>
      <trkpt lat="50.40649" lon="5.07649">
        <ele>240</ele>
        <time>2019-08-22T17:32:56Z</time>
      </trkpt>
      <trkpt lat="50.40513" lon="5.07737">
        <ele>233</ele>
        <time>2019-08-22T17:33:04Z</time>
      </trkpt>
      <trkpt lat="50.40386" lon="5.07678">
        <ele>231</ele>
        <time>2019-08-22T17:33:09Z</time>
      </trkpt>
      <trkpt lat="50.40255" lon="5.07577">
        <ele>242</ele>
        <time>2019-08-22T17:33:25Z</time>
      </trkpt>
      <trkpt lat="50.40136" lon="5.0746">
        <ele>247</ele>
        <time>2019-08-22T17:33:40Z</time>
      </trkpt>
      <trkpt lat="50.40014" lon="5.07396">
        <ele>250</ele>
        <time>2019-08-22T17:33:58Z</time>
      </trkpt>
      <trkpt lat="50.39869" lon="5.07437">
        <ele>259</ele>
        <time>2019-08-22T17:34:14Z</time>
      </trkpt>
      <trkpt lat="50.39821" lon="5.07644">
        <ele>263</ele>
        <time>2019-08-22T17:34:20Z</time>
      </trkpt>
      <trkpt lat="50.39707" lon="5.07776">
        <ele>276</ele>
        <time>2019-08-22T17:34:37Z</time>
      </trkpt>
      <trkpt lat="50.39639" lon="5.07963">
        <ele>263</ele>
        <time>2019-08-22T17:34:54Z</time>
      </trkpt>
      <trkpt lat="50.39606" lon="5.08188">
        <ele>263</ele>
        <time>2019-08-22T17:34:59Z</time>
      </trkpt>
      <trkpt lat="50.39554" lon="5.08401">
        <ele>258</ele>
        <time>2019-08-22T17:35:12Z</time>
      </trkpt>
      <trkpt lat="50.39467" lon="5.08587">
        <ele>260</ele>
        <time>2019-08-22T17:35:26Z</time>
      </trkpt>
      <trkpt lat="50.39382" lon="5.08776">
        <ele>262</ele>
        <time>2019-08-22T17:35:32Z</time>
      </trkpt>
      <trkpt lat="50.39301" lon="5.08969">
        <ele>261</ele>
        <time>2019-08-22T17:35:35Z</time>
      </trkpt>
      <trkpt lat="50.39188" lon="5.09109">
        <ele>262</ele>
        <time>2019-08-22T17:35:48Z</time>
      </trkpt>
      <trkpt lat="50.39057" lon="5.09214">
        <ele>266</ele>
        <time>2019-08-22T17:36:06Z</time>
      </trkpt>
      <trkpt lat="50.38926" lon="5.09319">
        <ele>274</ele>
        <time>2019-08-22T17:36:19Z</time>
      </trkpt>
      <trkpt lat="50.38794" lon="5.09422">
        <ele>275</ele>
        <time>2019-08-22T17:36:27Z</time>
      </trkpt>
      <trkpt lat="50.38669" lon="5.09544">
        <ele>277</ele>
        <time>2019-08-22T17:36:45Z</time>
      </trkpt>
      <trkpt lat="50.38573" lon="5.09718">
        <ele>274</ele>
        <time>2019-08-22T17:36:47Z</time>
      </trkpt>
      <trkpt lat="50.38479" lon="5.09895">
        <ele>273</ele>
        <time>2019-08-22T17:36:52Z</time>
      </trkpt>
      <trkpt lat="50.3839" lon="5.10079">
        <ele>275</ele>
        <time>2019-08-22T17:37:10Z</time>
      </trkpt>
      <trkpt lat="50.38307" lon="5.10269">
        <ele>272</ele>
        <time>2019-08-22T17:37:30Z</time>
      </trkpt>
      <trkpt lat="50.38223" lon="5.1046">
        <ele>274</ele>
        <time>2019-08-22T17:37:46Z</time>
      </trkpt>
      <trkpt lat="50.38128" lon="5.10636">
        <ele>276</ele>
        <time>2019-08-22T17:38:01Z</time>
      </trkpt>
      <trkpt lat="50.38016" lon="5.10782">
        <ele>285</ele>
        <time>2019-08-22T17:38:17Z</time>
      </trkpt>
      <trkpt lat="50.37951" lon="5.10962">
        <ele>292</ele>
        <time>2019-08-22T17:38:36Z</time>
      </trkpt>
      <trkpt lat="50.37975" lon="5.11185">
        <ele>291</ele>
        <time>2019-08-22T17:38:45Z</time>
      </trkpt>
      <trkpt lat="50.3798" lon="5.11395">
        <ele>290</ele>
        <time>2019-08-22T17:38:49Z</time>
      </trkpt>
      <trkpt lat="50.37916" lon="5.11602">
        <ele>284</ele>
        <time>2019-08-22T17:38:56Z</time>
      </trkpt>
      <trkpt lat="50.3786" lon="5.11816">
        <ele>278</ele>
        <time>2019-08-22T17:39:04Z</time>
      </trkpt>
      <trkpt lat="50.3777" lon="5.11985">
        <ele>276</ele>
        <time>2019-08-22T17:39:06Z</time>
      </trkpt>
      <trkpt lat="50.37637" lon="5.12087">
        <ele>280</ele>
        <time>2019-08-22T17:39:26Z</time>
      </trkpt>
      <trkpt lat="50.37524" lon="5.12229">
        <ele>282</ele>
        <time>2019-08-22T17:39:37Z</time>
      </trkpt>
      <trkpt lat="50.37424" lon="5.12398">
        <ele>287</ele>
        <time>2019-08-22T17:39:39Z</time>
      </trkpt>
      <trkpt lat="50.37323" lon="5.12567">
        <ele>295</ele>
        <time>2019-08-22T17:39:47Z</time>
      </trkpt>
      <trkpt lat="50.37196" lon="5.12544">
        <ele>299</ele>
        <time>2019-08-22T17:39:52Z</time>
      </trkpt>
      <trkpt lat="50.37061" lon="5.12449">
        <ele>297</ele>
        <time>2019-08-22T17:40:09Z</time>
      </trkpt>
      <trkpt lat="50.36927" lon="5.12354">
        <ele>292</ele>
        <time>2019-08-22T17:40:23Z</time>
      </trkpt>
      <trkpt lat="50.36786" lon="5.12305">
        <ele>282</ele>
        <time>2019-08-22T17:40:34Z</time>
      </trkpt>
      <trkpt lat="50.36638" lon="5.12301">
        <ele>278</ele>
        <time>2019-08-22T17:40:46Z</time>
      </trkpt>
      <trkpt lat="50.36492" lon="5.12309">
        <ele>280</ele>
        <time>2019-08-22T17:41:00Z</time>
      </trkpt>
      <trkpt lat="50.36352" lon="5.12378">
        <ele>282</ele>
        <time>2019-08-22T17:41:17Z</time>
      </trkpt>
      <trkpt lat="50.36216" lon="5.12312">
        <ele>281</ele>
        <time>2019-08-22T17:41:30Z</time>
      </trkpt>
      <trkpt lat="50.36077" lon="5.12242">
        <ele>270</ele>
        <time>2019-08-22T17:41:32Z</time>
      </trkpt>
      <trkpt lat="50.35959" lon="5.12368">
        <ele>262</ele>
        <time>2019-08-22T17:41:42Z</time>
      </trkpt>
      <trkpt lat="50.35863" lon="5.12537">
        <ele>260</ele>
        <time>2019-08-22T17:41:46Z</time>
      </trkpt>
      <trkpt lat="50.35773" lon="5.12711">
        <ele>271</ele>
        <time>2019-08-22T17:42:02Z</time>
      </trkpt>
      <trkpt lat="50.35682" lon="5.12886">
        <ele>272</ele>
        <time>2019-08-22T17:42:22Z</time>
      </trkpt>
      <trkpt lat="50.35629" lon="5.13101">
        <ele>273</ele>
        <time>2019-08-22T17:42:36Z</time>
      </trkpt>
      <trkpt lat="50.35574" lon="5.1331">
        <ele>269</ele>
        <time>2019-08-22T17:42:55Z</time>
      </trkpt>
      <trkpt lat="50.3548" lon="5.13485">
        <ele>278</ele>
        <time>2019-08-22T17:43:13Z</time>
      </trkpt>
      <trkpt lat="50.35369" lon="5.13636">
        <ele>275</ele>
        <time>2019-08-22T17:43:17Z</time>
      </trkpt>
      <trkpt lat="50.35265" lon="5.13797">
        <ele>264</ele>
        <time>2019-08-22T17:43:32Z</time>
      </trkpt>
      <trkpt lat="50.35155" lon="5.13952">
        <ele>267</ele>
        <time>2019-08-22T17:43:50Z</time>
      </trkpt>
      <trkpt lat="50.35048" lon="5.14111">
        <ele>274</ele>
        <time>2019-08-22T17:44:05Z</time>
      </trkpt>
      <trkpt lat="50.34938" lon="5.14264">
        <ele>299</ele>
        <time>2019-08-22T17:44:17Z</time>
      </trkpt>
      <trkpt lat="50.34833" lon="5.14425">
        <ele>291</ele>
        <time>2019-08-22T17:44:30Z</time>
      </trkpt>
      <trkpt lat="50.34741" lon="5.14605">
        <ele>286</ele>
        <time>2019-08-22T17:44:46Z</time>
      </trkpt>
      <trkpt lat="50.34643" lon="5.14755">
        <ele>277</ele>
        <time>2019-08-22T17:45:06Z</time>
      </trkpt>
      <trkpt lat="50.34498" lon="5.14745">
        <ele>267</ele>
        <time>2019-08-22T17:45:16Z</time>
      </trkpt>
      <trkpt lat="50.34361" lon="5.14727">
        <ele>259</ele>
        <time>2019-08-22T17:45:21Z</time>
      </trkpt>
      <trkpt lat="50.34298" lon="5.1492">
        <ele>253</ele>
        <time>2019-08-22T17:45:31Z</time>
      </trkpt>
      <trkpt lat="50.34265" lon="5.1512">
        <ele>245</ele>
        <time>2019-08-22T17:45:48Z</time>
      </trkpt>
      <trkpt lat="50.34157" lon="5.15274">
        <ele>246</ele>
        <time>2019-08-22T17:45:57Z</time>
      </trkpt>
      <trkpt lat="50.34142" lon="5.15501">
        <ele>249</ele>
        <time>2019-08-22T17:46:02Z</time>
      </trkpt>
      <trkpt lat="50.34076" lon="5.15635">
        <ele>248</ele>
        <time>2019-08-22T17:46:12Z</time>
      </trkpt>
      <trkpt lat="50.34021" lon="5.15707">
        <ele>251</ele>
        <time>2019-08-22T17:46:24Z</time>
      </trkpt>
      <trkpt lat="50.34011" lon="5.15938">
        <ele>251</ele>
        <time>2019-08-22T17:46:39Z</time>
      </trkpt>
      <trkpt lat="50.34016" lon="5.16168">
        <ele>255</ele>
        <time>2019-08-22T17:46:43Z</time>
      </trkpt>
      <trkpt lat="50.34002" lon="5.16397">
        <ele>255</ele>
        <time>2019-08-22T17:46:54Z</time>
      </trkpt>
      <trkpt lat="50.33943" lon="5.166">
        <ele>256</ele>
        <time>2019-08-22T17:47:11Z</time>
      </trkpt>
      <trkpt lat="50.33848" lon="5.16776">
        <ele>259</ele>
        <time>2019-08-22T17:47:31Z</time>
      </trkpt>
      <trkpt lat="50.33736" lon="5.16926">
        <ele>255</ele>
        <time>2019-08-22T17:47:46Z</time>
      </trkpt>
      <trkpt lat="50.3361" lon="5.17043">
        <ele>258</ele>
        <time>2019-08-22T17:47:55Z</time>
      </trkpt>
      <trkpt lat="50.33474" lon="5.17122">
        <ele>258</ele>
        <time>2019-08-22T17:47:58Z</time>
      </trkpt>
      <trkpt lat="50.33377" lon="5.17295">
        <ele>257</ele>
        <time>2019-08-22T17:48:03Z</time>
      </trkpt>
      <trkpt lat="50.33276" lon="5.17456">
        <ele>261</ele>
        <time>2019-08-22T17:48:16Z</time>
      </trkpt>
      <trkpt lat="50.33217" lon="5.17602">
        <ele>259</ele>
        <time>2019-08-22T17:48:27Z</time>
      </trkpt>
      <trkpt lat="50.33071" lon="5.17579">
        <ele>263</ele>
        <time>2019-08-22T17:48:44Z</time>
      </trkpt>
      <trkpt lat="50.32945" lon="5.17476">
        <ele>259</ele>
        <time>2019-08-22T17:48:59Z</time>
      </trkpt>
      <trkpt lat="50.32798" lon="5.17476">
        <ele>261</ele>
        <time>2019-08-22T17:49:11Z</time>
      </trkpt>
      <trkpt lat="50.32651" lon="5.17481">
        <ele>262</ele>
        <time>2019-08-22T17:49:30Z</time>
      </trkpt>
      <trkpt lat="50.32514" lon="5.17548">
        <ele>268</ele>
        <time>2019-08-22T17:49:38Z</time>
      </trkpt>
      <trkpt lat="50.32424" lon="5.17729">
        <ele>267</ele>
        <time>2019-08-22T17:49:52Z</time>
      </trkpt>
      <trkpt lat="50.32345" lon="5.17924">
        <ele>265</ele>
        <time>2019-08-22T17:49:55Z</time>
      </trkpt>
      <trkpt lat="50.32263" lon="5.18116">
        <ele>268</ele>
        <time>2019-08-22T17:50:08Z</time>
      </trkpt>
      <trkpt lat="50.32134" lon="5.18223">
        <ele>271</ele>
        <time>2019-08-22T17:50:13Z</time>
      </trkpt>
      <trkpt lat="50.32018" lon="5.1836">
        <ele>269</ele>
        <time>2019-08-22T17:50:32Z</time>
      </trkpt>
      <trkpt lat="50.31916" lon="5.18523">
        <ele>272</ele>
        <time>2019-08-22T17:50:35Z</time>
      </trkpt>
      <trkpt lat="50.31849" lon="5.18717">
        <ele>272</ele>
        <time>2019-08-22T17:50:54Z</time>
      </trkpt>
      <trkpt lat="50.31899" lon="5.18932">
        <ele>277</ele>
        <time>2019-08-22T17:50:56Z</time>
      </trkpt>
      <trkpt lat="50.31874" lon="5.19152">
        <ele>270</ele>
        <time>2019-08-22T17:51:16Z</time>
      </trkpt>
      <trkpt lat="50.31773" lon="5.1932">
        <ele>272</ele>
        <time>2019-08-22T17:51:29Z</time>
      </trkpt>
      <trkpt lat="50.3168" lon="5.19495">
        <ele>276</ele>
        <time>2019-08-22T17:51:38Z</time>
      </trkpt>
      <trkpt lat="50.31574" lon="5.19645">
        <ele>274</ele>
        <time>2019-08-22T17:51:56Z</time>
      </trkpt>
      <trkpt lat="50.315" lon="5.19843">
        <ele>275</ele>
        <time>2019-08-22T17:52:03Z</time>
      </trkpt>
      <trkpt lat="50.31482" lon="5.20072">
        <ele>281</ele>
        <time>2019-08-22T17:52:15Z</time>
      </trkpt>
      <trkpt lat="50.31418" lon="5.20274">
        <ele>285</ele>
        <time>2019-08-22T17:52:32Z</time>
      </trkpt>
      <trkpt lat="50.3132" lon="5.20444">
        <ele>287</ele>
        <time>2019-08-22T17:52:48Z</time>
      </trkpt>
      <trkpt lat="50.31186" lon="5.20538">
        <ele>295</ele>
        <time>2019-08-22T17:53:00Z</time>
      </trkpt>
      <trkpt lat="50.3105" lon="5.20629">
        <ele>289</ele>
        <time>2019-08-22T17:53:04Z</time>
      </trkpt>
      <trkpt lat="50.30916" lon="5.20725">
        <ele>287</ele>
        <time>2019-08-22T17:53:16Z</time>
      </trkpt>
      <trkpt lat="50.30797" lon="5.2086">
        <ele>294</ele>
        <time>2019-08-22T17:53:29Z</time>
      </trkpt>
      <trkpt lat="50.3068" lon="5.20854">
        <ele>295</ele>
        <time>2019-08-22T17:53:45Z</time>
      </trkpt>
      <trkpt lat="50.30585" lon="5.20684">
        <ele>300</ele>
        <time>2019-08-22T17:53:52Z</time>
      </trkpt>
      <trkpt lat="50.30447" lon="5.20743">
        <ele>301</ele>
        <time>2019-08-22T17:53:55Z</time>
      </trkpt>
      <trkpt lat="50.30318" lon="5.20853">
        <ele>301</ele>
        <time>2019-08-22T17:53:59Z</time>
      </trkpt>
      <trkpt lat="50.30192" lon="5.20974">
        <ele>318</ele>
        <time>2019-08-22T17:54:19Z</time>
      </trkpt>
      <trkpt lat="50.30067" lon="5.21096">
        <ele>322</ele>
        <time>2019-08-22T17:54:21Z</time>
      </trkpt>
      <trkpt lat="50.29941" lon="5.21214">
        <ele>333</ele>
        <time>2019-08-22T17:54:39Z</time>
      </trkpt>
      <trkpt lat="50.29826" lon="5.21088">
        <ele>337</ele>
        <time>2019-08-22T17:54:49Z</time>
      </trkpt>
      <trkpt lat="50.29712" lon="5.20941">
        <ele>336</ele>
        <time>2019-08-22T17:55:09Z</time>
      </trkpt>
      <trkpt lat="50.29584" lon="5.2083">
        <ele>336</ele>
        <time>2019-08-22T17:55:23Z</time>
      </trkpt>
      <trkpt lat="50.2945" lon="5.20733">
        <ele>335</ele>
        <time>2019-08-22T17:55:36Z</time>
      </trkpt>
      <trkpt lat="50.29335" lon="5.20592">
        <ele>336</ele>
        <time>2019-08-22T17:55:49Z</time>
      </trkpt>
      <trkpt lat="50.2925" lon="5.20405">
        <ele>328</ele>
        <time>2019-08-22T17:56:02Z</time>
      </trkpt>
      <trkpt lat="50.29173" lon="5.20208">
        <ele>329</ele>
        <time>2019-08-22T17:56:17Z</time>
      </trkpt>
      <trkpt lat="50.29096" lon="5.20012">
        <ele>343</ele>
        <time>2019-08-22T17:56:26Z</time>
      </trkpt>
      <trkpt lat="50.29021" lon="5.19813">
        <ele>345</ele>
        <time>2019-08-22T17:56:38Z</time>
      </trkpt>
      <trkpt lat="50.28944" lon="5.19617">
        <ele>344</ele>
        <time>2019-08-22T17:56:58Z</time>
      </trkpt>
      <trkpt lat="50.28883" lon="5.19407">
        <ele>340</ele>
        <time>2019-08-22T17:57:04Z</time>
      </trkpt>
      <trkpt lat="50.28826" lon="5.19195">
        <ele>334</ele>
        <time>2019-08-22T17:57:09Z</time>
      </trkpt>
      <trkpt lat="50.28755" lon="5.18993">
        <ele>332</ele>
        <time>2019-08-22T17:57:18Z</time>
      </trkpt>
      <trkpt lat="50.28683" lon="5.18791">
        <ele>333</ele>
        <time>2019-08-22T17:57:20Z</time>
      </trkpt>
      <trkpt lat="50.28607" lon="5.18594">
        <ele>333</ele>
        <time>2019-08-22T17:57:26Z</time>
      </trkpt>
      <trkpt lat="50.28523" lon="5.18405">
        <ele>332</ele>
        <time>2019-08-22T17:57:28Z</time>
      </trkpt>
      <trkpt lat="50.28443" lon="5.18211">
        <ele>334</ele>
        <time>2019-08-22T17:57:33Z</time>
      </trkpt>
      <trkpt lat="50.28364" lon="5.18018">
        <ele>335</ele>
        <time>2019-08-22T17:57:39Z</time>
      </trkpt>
      <trkpt lat="50.28277" lon="5.17832">
        <ele>335</ele>
        <time>2019-08-22T17:57:45Z</time>
      </trkpt>
      <trkpt lat="50.28186" lon="5.1765">
        <ele>335</ele>
        <time>2019-08-22T17:58:03Z</time>
      </trkpt>
      <trkpt lat="50.28101" lon="5.17462">
        <ele>337</ele>
        <time>2019-08-22T17:58:05Z</time>
      </trkpt>
      <trkpt lat="50.2802" lon="5.17269">
        <ele>337</ele>
        <time>2019-08-22T17:58:25Z</time>
      </trkpt>
      <trkpt lat="50.27914" lon="5.17217">
        <ele>341</ele>
        <time>2019-08-22T17:58:32Z</time>
      </trkpt>
      <trkpt lat="50.27768" lon="5.17224">
        <ele>336</ele>
        <time>2019-08-22T17:58:40Z</time>
      </trkpt>
      <trkpt lat="50.2762" lon="5.17225">
        <ele>331</ele>
        <time>2019-08-22T17:58:47Z</time>
      </trkpt>
      <trkpt lat="50.27474" lon="5.17231">
        <ele>328</ele>
        <time>2019-08-22T17:58:51Z</time>
      </trkpt>
      <trkpt lat="50.27329" lon="5.17276">
        <ele>331</ele>
        <time>2019-08-22T17:59:11Z</time>
      </trkpt>
      <trkpt lat="50.27184" lon="5.17311">
        <ele>327</ele>
        <time>2019-08-22T17:59:29Z</time>
      </trkpt>
      <trkpt lat="50.27038" lon="5.17305">
        <ele>315</ele>
        <time>2019-08-22T17:59:39Z</time>
      </trkpt>
      <trkpt lat="50.26892" lon="5.17271">
        <ele>313</ele>
        <time>2019-08-22T17:59:44Z</time>
      </trkpt>
      <trkpt lat="50.26783" lon="5.17391">
        <ele>304</ele>
        <time>2019-08-22T17:59:46Z</time>
      </trkpt>
      <trkpt lat="50.26702" lon="5.1758">
        <ele>308</ele>
        <time>2019-08-22T17:59:54Z</time>
      </trkpt>
      <trkpt lat="50.2659" lon="5.1773">
        <ele>309</ele>
        <time>2019-08-22T18:00:05Z</time>
      </trkpt>
      <trkpt lat="50.26471" lon="5.17862">
        <ele>308</ele>
        <time>2019-08-22T18:00:25Z</time>
      </trkpt>
      <trkpt lat="50.26337" lon="5.17957">
        <ele>304</ele>
        <time>2019-08-22T18:00:36Z</time>
      </trkpt>
      <trkpt lat="50.26213" lon="5.1808">
        <ele>307</ele>
        <time>2019-08-22T18:00:38Z</time>
      </trkpt>
      <trkpt lat="50.26093" lon="5.18213">
        <ele>303</ele>
        <time>2019-08-22T18:00:56Z</time>
      </trkpt>
      <trkpt lat="50.25973" lon="5.18345">
        <ele>305</ele>
        <time>2019-08-22T18:01:06Z</time>
      </trkpt>
      <trkpt lat="50.25851" lon="5.18475">
        <ele>319</ele>
        <time>2019-08-22T18:01:13Z</time>
      </trkpt>
      <trkpt lat="50.25728" lon="5.18603">
        <ele>321</ele>
        <time>2019-08-22T18:01:25Z</time>
      </trkpt>
      <trkpt lat="50.25615" lon="5.18748">
        <ele>316</ele>
        <time>2019-08-22T18:01:29Z</time>
      </trkpt>
      <trkpt lat="50.2551" lon="5.1891">
        <ele>310</ele>
        <time>2019-08-22T18:01:36Z</time>
      </trkpt>
      <trkpt lat="50.25405" lon="5.19072">
        <ele>307</ele>
        <time>2019-08-22T18:01:38Z</time>
      </trkpt>
      <trkpt lat="50.253" lon="5.19233">
        <ele>309</ele>
        <time>2019-08-22T18:01:45Z</time>
      </trkpt>
      <trkpt lat="50.25174" lon="5.19353">
        <ele>314</ele>
        <time>2019-08-22T18:02:05Z</time>
      </trkpt>
      <trkpt lat="50.25047" lon="5.19469">
        <ele>313</ele>
        <time>2019-08-22T18:02:15Z</time>
      </trkpt>
      <trkpt lat="50.24919" lon="5.19582">
        <ele>314</ele>
        <time>2019-08-22T18:02:17Z</time>
      </trkpt>
      <trkpt lat="50.24951" lon="5.19805">
        <ele>313</ele>
        <time>2019-08-22T18:02:30Z</time>
      </trkpt>
      <trkpt lat="50.24977" lon="5.20032">
        <ele>313</ele>
        <time>2019-08-22T18:02:49Z</time>
      </trkpt>
      <trkpt lat="50.24939" lon="5.20197">
        <ele>308</ele>
        <time>2019-08-22T18:03:02Z</time>
      </trkpt>
      <trkpt lat="50.24807" lon="5.20299">
        <ele>334</ele>
        <time>2019-08-22T18:03:07Z</time>
      </trkpt>
      <trkpt lat="50.24674" lon="5.20401">
        <ele>339</ele>
        <time>2019-08-22T18:03:20Z</time>
      </trkpt>
      <trkpt lat="50.2454" lon="5.20411">
        <ele>335</ele>
        <time>2019-08-22T18:03:27Z</time>
      </trkpt>
      <trkpt lat="50.2441" lon="5.20304">
        <ele>334</ele>
        <time>2019-08-22T18:03:42Z</time>
      </trkpt>
      <trkpt lat="50.24273" lon="5.20384">
        <ele>328</ele>
        <time>2019-08-22T18:03:56Z</time>
      </trkpt>
      <trkpt lat="50.24147" lon="5.20441">
        <ele>330</ele>
        <time>2019-08-22T18:04:08Z</time>
      </trkpt>
      <trkpt lat="50.24001" lon="5.20463">
        <ele>321</ele>
        <time>2019-08-22T18:04:10Z</time>
      </trkpt>
      <trkpt lat="50.23854" lon="5.20493">
        <ele>310</ele>
        <time>2019-08-22T18:04:23Z</time>
      </trkpt>
      <trkpt lat="50.23717" lon="5.20567">
        <ele>301</ele>
        <time>2019-08-22T18:04:31Z</time>
      </trkpt>
      <trkpt lat="50.23586" lon="5.20672">
        <ele>294</ele>
        <time>2019-08-22T18:04:40Z</time>
      </trkpt>
      <trkpt lat="50.23442" lon="5.20709">
        <ele>293</ele>
        <time>2019-08-22T18:04:42Z</time>
      </trkpt>
      <trkpt lat="50.23295" lon="5.20705">
        <ele>294</ele>
        <time>2019-08-22T18:04:58Z</time>
      </trkpt>
      <trkpt lat="50.23151" lon="5.20658">
        <ele>284</ele>
        <time>2019-08-22T18:05:17Z</time>
      </trkpt>
      <trkpt lat="50.23008" lon="5.20602">
        <ele>268</ele>
        <time>2019-08-22T18:05:35Z</time>
      </trkpt>
      <trkpt lat="50.22871" lon="5.20521">
        <ele>251</ele>
        <time>2019-08-22T18:05:53Z</time>
      </trkpt>
      <trkpt lat="50.22735" lon="5.2043">
        <ele>247</ele>
        <time>2019-08-22T18:05:57Z</time>
      </trkpt>
      <trkpt lat="50.22613" lon="5.20305">
        <ele>233</ele>
        <time>2019-08-22T18:06:08Z</time>
      </trkpt>
      <trkpt lat="50.22482" lon="5.20233">
        <ele>230</ele>
        <time>2019-08-22T18:06:16Z</time>
      </trkpt>
      <trkpt lat="50.22337" lon="5.20276">
        <ele>219</ele>
        <time>2019-08-22T18:06:32Z</time>
      </trkpt>
      <trkpt lat="50.22191" lon="5.20298">
        <ele>210</ele>
        <time>2019-08-22T18:06:37Z</time>
      </trkpt>
      <trkpt lat="50.22044" lon="5.2032">
        <ele>205</ele>
        <time>2019-08-22T18:06:56Z</time>
      </trkpt>
      <trkpt lat="50.21898" lon="5.20345">
        <ele>193</ele>
        <time>2019-08-22T18:07:09Z</time>
      </trkpt>
      <trkpt lat="50.21756" lon="5.20329">
        <ele>184</ele>
        <time>2019-08-22T18:07:22Z</time>
      </trkpt>
      <trkpt lat="50.2164" lon="5.20189">
        <ele>185</ele>
        <time>2019-08-22T18:07:39Z</time>
      </trkpt>
      <trkpt lat="50.21604" lon="5.20412">
        <ele>181</ele>
        <time>2019-08-22T18:07:45Z</time>
      </trkpt>
      <trkpt lat="50.21514" lon="5.20592">
        <ele>184</ele>
        <time>2019-08-22T18:08:01Z</time>
      </trkpt>
      <trkpt lat="50.21407" lon="5.20747">
        <ele>198</ele>
        <time>2019-08-22T18:08:11Z</time>
      </trkpt>
      <trkpt lat="50.21306" lon="5.20911">
        <ele>206</ele>
        <time>2019-08-22T18:08:27Z</time>
      </trkpt>
      <trkpt lat="50.21206" lon="5.2108">
        <ele>209</ele>
        <time>2019-08-22T18:08:46Z</time>
      </trkpt>
      <trkpt lat="50.21103" lon="5.21245">
        <ele>213</ele>
        <time>2019-08-22T18:09:04Z</time>
      </trkpt>
      <trkpt lat="50.20995" lon="5.21402">
        <ele>221</ele>
        <time>2019-08-22T18:09:11Z</time>
      </trkpt>
      <trkpt lat="50.2089" lon="5.21562">
        <ele>233</ele>
        <time>2019-08-22T18:09:20Z</time>
      </trkpt>
      <trkpt lat="50.20798" lon="5.21741">
        <ele>240</ele>
        <time>2019-08-22T18:09:27Z</time>
      </trkpt>
      <trkpt lat="50.20706" lon="5.2192">
        <ele>247</ele>
        <time>2019-08-22T18:09:46Z</time>
      </trkpt>
      <trkpt lat="50.20585" lon="5.22052">
        <ele>242</ele>
        <time>2019-08-22T18:09:51Z</time>
      </trkpt>
      <trkpt lat="50.20456" lon="5.22161">
        <ele>236</ele>
        <time>2019-08-22T18:10:04Z</time>
      </trkpt>
      <trkpt lat="50.20325" lon="5.22267">
        <ele>231</ele>
        <time>2019-08-22T18:10:24Z</time>
      </trkpt>
      <trkpt lat="50.20191" lon="5.22359">
        <ele>223</ele>
        <time>2019-08-22T18:10:44Z</time>
      </trkpt>
      <trkpt lat="50.20086" lon="5.22514">
        <ele>218</ele>
        <time>2019-08-22T18:10:50Z</time>
      </trkpt>
      <trkpt lat="50.20025" lon="5.22721">
        <ele>213</ele>
        <time>2019-08-22T18:11:05Z</time>
      </trkpt>
      <trkpt lat="50.20049" lon="5.22925">
        <ele>208</ele>
        <time>2019-08-22T18:11:25Z</time>
      </trkpt>
      <trkpt lat="50.20148" lon="5.23093">
        <ele>207</ele>
        <time>2019-08-22T18:11:29Z</time>
      </trkpt>
      <trkpt lat="50.20251" lon="5.23256">
        <ele>209</ele>
        <time>2019-08-22T18:11:47Z</time>
      </trkpt>
      <trkpt lat="50.20281" lon="5.2348">
        <ele>204</ele>
        <time>2019-08-22T18:11:54Z</time>
      </trkpt>
      <trkpt lat="50.20305" lon="5.23707">
        <ele>202</ele>
        <time>2019-08-22T18:11:56Z</time>
      </trkpt>
      <trkpt lat="50.20348" lon="5.23922">
        <ele>199</ele>
        <time>2019-08-22T18:12:16Z</time>
      </trkpt>
      <trkpt lat="50.2037" lon="5.24141">
        <ele>195</ele>
        <time>2019-08-22T18:12:21Z</time>
      </trkpt>
      <trkpt lat="50.20416" lon="5.2436">
        <ele>195</ele>
        <time>2019-08-22T18:12:31Z</time>
      </trkpt>
      <trkpt lat="50.2042" lon="5.24569">
        <ele>193</ele>
        <time>2019-08-22T18:12:33Z</time>
      </trkpt>
      <trkpt lat="50.2031" lon="5.2472">
        <ele>198</ele>
        <time>2019-08-22T18:12:43Z</time>
      </trkpt>
      <trkpt lat="50.20278" lon="5.24931">
        <ele>209</ele>
        <time>2019-08-22T18:13:02Z</time>
      </trkpt>
      <trkpt lat="50.20377" lon="5.25098">
        <ele>209</ele>
        <time>2019-08-22T18:13:06Z</time>
      </trkpt>
      <trkpt lat="50.2047" lon="5.25277">
        <ele>212</ele>
        <time>2019-08-22T18:13:13Z</time>
      </trkpt>
      <trkpt lat="50.20554" lon="5.25465">
        <ele>222</ele>
        <time>2019-08-22T18:13:31Z</time>
      </trkpt>
      <trkpt lat="50.20636" lon="5.25656">
        <ele>221</ele>
        <time>2019-08-22T18:13:37Z</time>
      </trkpt>
      <trkpt lat="50.20557" lon="5.25739">
        <ele>226</ele>
        <time>2019-08-22T18:13:55Z</time>
      </trkpt>
      <trkpt lat="50.20423" lon="5.25654">
        <ele>234</ele>
        <time>2019-08-22T18:14:11Z</time>
      </trkpt>
      <trkpt lat="50.20303" lon="5.25523">
        <ele>240</ele>
        <time>2019-08-22T18:14:13Z</time>
      </trkpt>
      <trkpt lat="50.20173" lon="5.25424">
        <ele>257</ele>
        <time>2019-08-22T18:14:19Z</time>
      </trkpt>
      <trkpt lat="50.20058" lon="5.25305">
        <ele>271</ele>
        <time>2019-08-22T18:14:34Z</time>
      </trkpt>
      <trkpt lat="50.19931" lon="5.25259">
        <ele>278</ele>
        <time>2019-08-22T18:14:48Z</time>
      </trkpt>
      <trkpt lat="50.19795" lon="5.2518">
        <ele>281</ele>
        <time>2019-08-22T18:14:54Z</time>
      </trkpt>
      <trkpt lat="50.19665" lon="5.25074">
        <ele>278</ele>
        <time>2019-08-22T18:15:01Z</time>
      </trkpt>
      <trkpt lat="50.19533" lon="5.24973">
        <ele>280</ele>
        <time>2019-08-22T18:15:14Z</time>
      </trkpt>
      <trkpt lat="50.19388" lon="5.24999">
        <ele>285</ele>
        <time>2019-08-22T18:15:33Z</time>
      </trkpt>
      <trkpt lat="50.19246" lon="5.24943">
        <ele>291</ele>
        <time>2019-08-22T18:15:48Z</time>
      </trkpt>
      <trkpt lat="50.19104" lon="5.24901">
        <ele>292</ele>
        <time>2019-08-22T18:16:04Z</time>
      </trkpt>
      <trkpt lat="50.19015" lon="5.24718">
        <ele>292</ele>
        <time>2019-08-22T18:16:18Z</time>
      </trkpt>
      <trkpt lat="50.18918" lon="5.24545">
        <ele>294</ele>
        <time>2019-08-22T18:16:28Z</time>
      </trkpt>
      <trkpt lat="50.18812" lon="5.24385">
        <ele>293</ele>
        <time>2019-08-22T18:16:32Z</time>
      </trkpt>
      <trkpt lat="50.18699" lon="5.24237">
        <ele>288</ele>
        <time>2019-08-22T18:16:47Z</time>
      </trkpt>
      <trkpt lat="50.18588" lon="5.24086">
        <ele>280</ele>
        <time>2019-08-22T18:16:59Z</time>
      </trkpt>
      <trkpt lat="50.18478" lon="5.23934">
        <ele>264</ele>
        <time>2019-08-22T18:17:12Z</time>
      </trkpt>
      <trkpt lat="50.18369" lon="5.23779">
        <ele>262</ele>
        <time>2019-08-22T18:17:31Z</time>
      </trkpt>
      <trkpt lat="50.18249" lon="5.23659">
        <ele>260</ele>
        <time>2019-08-22T18:17:41Z</time>
      </trkpt>
      <trkpt lat="50.18116" lon="5.23568">
        <ele>258</ele>
        <time>2019-08-22T18:17:53Z</time>
      </trkpt>
      <trkpt lat="50.17981" lon="5.23476">
        <ele>256</ele>
        <time>2019-08-22T18:17:57Z</time>
      </trkpt>
      <trkpt lat="50.17862" lon="5.23342">
        <ele>255</ele>
        <time>2019-08-22T18:18:15Z</time>
      </trkpt>
      <trkpt lat="50.17732" lon="5.23237">
        <ele>249</ele>
        <time>2019-08-22T18:18:26Z</time>
      </trkpt>
      <trkpt lat="50.17605" lon="5.23122">
        <ele>248</ele>
        <time>2019-08-22T18:18:29Z</time>
      </trkpt>
      <trkpt lat="50.17468" lon="5.2306">
        <ele>238</ele>
        <time>2019-08-22T18:18:41Z</time>
      </trkpt>
      <trkpt lat="50.1736" lon="5.22911">
        <ele>242</ele>
        <time>2019-08-22T18:18:47Z</time>
      </trkpt>
      <trkpt lat="50.17222" lon="5.22833">
        <ele>243</ele>
        <time>2019-08-22T18:18:59Z</time>
      </trkpt>
      <trkpt lat="50.17109" lon="5.22686">
        <ele>224</ele>
        <time>2019-08-22T18:19:06Z</time>
      </trkpt>
      <trkpt lat="50.16971" lon="5.22721">
        <ele>216</ele>
        <time>2019-08-22T18:19:09Z</time>
      </trkpt>
      <trkpt lat="50.16837" lon="5.22634">
        <ele>207</ele>
        <time>2019-08-22T18:19:21Z</time>
      </trkpt>
      <trkpt lat="50.16706" lon="5.22529">
        <ele>194</ele>
        <time>2019-08-22T18:19:35Z</time>
      </trkpt>
      <trkpt lat="50.16569" lon="5.22556">
        <ele>196</ele>
        <time>2019-08-22T18:19:37Z</time>
      </trkpt>
      <trkpt lat="50.16431" lon="5.22622">
        <ele>177</ele>
        <time>2019-08-22T18:19:43Z</time>
      </trkpt>
      <trkpt lat="50.16335" lon="5.22749">
        <ele>178</ele>
        <time>2019-08-22T18:19:52Z</time>
      </trkpt>
      <trkpt lat="50.16364" lon="5.22973">
        <ele>190</ele>
        <time>2019-08-22T18:20:07Z</time>
      </trkpt>
      <trkpt lat="50.1637" lon="5.23201">
        <ele>201</ele>
        <time>2019-08-22T18:20:22Z</time>
      </trkpt>
      <trkpt lat="50.16366" lon="5.2342">
        <ele>210</ele>
        <time>2019-08-22T18:20:37Z</time>
      </trkpt>
      <trkpt lat="50.16381" lon="5.23649">
        <ele>213</ele>
        <time>2019-08-22T18:20:55Z</time>
      </trkpt>
      <trkpt lat="50.16383" lon="5.23878">
        <ele>226</ele>
        <time>2019-08-22T18:21:02Z</time>
      </trkpt>
      <trkpt lat="50.16379" lon="5.24107">
        <ele>227</ele>
        <time>2019-08-22T18:21:22Z</time>
      </trkpt>
      <trkpt lat="50.16351" lon="5.24333">
        <ele>220</ele>
        <time>2019-08-22T18:21:40Z</time>
      </trkpt>
      <trkpt lat="50.16257" lon="5.24497">
        <ele>221</ele>
        <time>2019-08-22T18:21:57Z</time>
      </trkpt>
      <trkpt lat="50.1628" lon="5.24556">
        <ele>228</ele>
        <time>2019-08-22T18:22:17Z</time>
      </trkpt>
      <trkpt lat="50.16324" lon="5.24604">
        <ele>223</ele>
        <time>2019-08-22T18:22:36Z</time>
      </trkpt>
      <trkpt lat="50.16363" lon="5.24693">
        <ele>233</ele>
        <time>2019-08-22T18:22:41Z</time>
      </trkpt>
      <trkpt lat="50.16384" lon="5.24768">
        <ele>225</ele>
        <time>2019-08-22T18:22:58Z</time>
      </trkpt>
      <trkpt lat="50.16402" lon="5.24844">
        <ele>229</ele>
        <time>2019-08-22T18:23:00Z</time>
      </trkpt>
      <trkpt lat="50.16421" lon="5.2492">
        <ele>228</ele>
        <time>2019-08-22T18:23:06Z</time>
      </trkpt>
      <trkpt lat="50.16423" lon="5.24926">
        <ele>228</ele>
        <time>2019-08-22T18:23:19Z</time>
      </trkpt>
      <trkpt lat="50.16438" lon="5.24966">
        <ele>226</ele>
        <time>2019-08-22T18:23:36Z</time>
      </trkpt>
      <trkpt lat="50.16472" lon="5.25059">
        <ele>227</ele>
        <time>2019-08-22T18:23:39Z</time>
      </trkpt>
      <trkpt lat="50.16506" lon="5.25153">
        <ele>230</ele>
        <time>2019-08-22T18:23:49Z</time>
      </trkpt>
      <trkpt lat="50.16524" lon="5.25201">
        <ele>230</ele>
        <time>2019-08-22T18:24:09Z</time>
      </trkpt>
      <trkpt lat="50.16558" lon="5.25291">
        <ele>237</ele>
        <time>2019-08-22T18:24:29Z</time>
      </trkpt>
      <trkpt lat="50.16592" lon="5.25382">
        <ele>247</ele>
        <time>2019-08-22T18:24:40Z</time>
      </trkpt>
      <trkpt lat="50.16627" lon="5.25472">
        <ele>255</ele>
        <time>2019-08-22T18:24:53Z</time>
      </trkpt>
      <trkpt lat="50.16656" lon="5.25565">
        <ele>254</ele>
        <time>2019-08-22T18:25:02Z</time>
      </trkpt>
      <trkpt lat="50.16665" lon="5.2567">
        <ele>253</ele>
        <time>2019-08-22T18:25:17Z</time>
      </trkpt>
      <trkpt lat="50.16674" lon="5.25774">
        <ele>253</ele>
        <time>2019-08-22T18:25:24Z</time>
      </trkpt>
      <trkpt lat="50.16683" lon="5.25878">
        <ele>251</ele>
        <time>2019-08-22T18:25:27Z</time>
      </trkpt>
      <trkpt lat="50.16686" lon="5.25916">
        <ele>251</ele>
        <time>2019-08-22T18:25:45Z</time>
      </trkpt>
      <trkpt lat="50.1668" lon="5.26033">
        <ele>248</ele>
        <time>2019-08-22T18:26:01Z</time>
      </trkpt>
      <trkpt lat="50.16674" lon="5.2615">
        <ele>242</ele>
        <time>2019-08-22T18:26:15Z</time>
      </trkpt>
      <trkpt lat="50.16706" lon="5.26277">
        <ele>242</ele>
        <time>2019-08-22T18:26:22Z</time>
      </trkpt>
      <trkpt lat="50.16733" lon="5.26373">
        <ele>243</ele>
        <time>2019-08-22T18:26:34Z</time>
      </trkpt>
      <trkpt lat="50.16753" lon="5.26451">
        <ele>243</ele>
        <time>2019-08-22T18:26:47Z</time>
      </trkpt>
      <trkpt lat="50.16774" lon="5.26529">
        <ele>244</ele>
        <time>2019-08-22T18:26:53Z</time>
      </trkpt>
      <trkpt lat="50.16795" lon="5.26607">
        <ele>239</ele>
        <time>2019-08-22T18:27:13Z</time>
      </trkpt>
      <trkpt lat="50.16809" lon="5.26662">
        <ele>236</ele>
        <time>2019-08-22T18:27:27Z</time>
      </trkpt>
      <trkpt lat="50.16869" lon="5.26771">
        <ele>239</ele>
        <time>2019-08-22T18:27:40Z</time>
      </trkpt>
      <trkpt lat="50.16929" lon="5.26879">
        <ele>241</ele>
        <time>2019-08-22T18:27:50Z</time>
      </trkpt>
      <trkpt lat="50.16989" lon="5.26988">
        <ele>241</ele>
        <time>2019-08-22T18:27:54Z</time>
      </trkpt>
      <trkpt lat="50.17068" lon="5.27113">
        <ele>241</ele>
        <time>2019-08-22T18:28:06Z</time>
      </trkpt>
      <trkpt lat="50.17134" lon="5.27213">
        <ele>244</ele>
        <time>2019-08-22T18:28:21Z</time>
      </trkpt>
      <trkpt lat="50.17187" lon="5.27305">
        <ele>244</ele>
        <time>2019-08-22T18:28:40Z</time>
      </trkpt>
      <trkpt lat="50.17237" lon="5.27395">
        <ele>245</ele>
        <time>2019-08-22T18:28:54Z</time>
      </trkpt>
      <trkpt lat="50.17288" lon="5.27484">
        <ele>245</ele>
        <time>2019-08-22T18:29:07Z</time>
      </trkpt>
      <trkpt lat="50.1734" lon="5.27571">
        <ele>248</ele>
        <time>2019-08-22T18:29:13Z</time>
      </trkpt>
      <trkpt lat="50.17395" lon="5.27654">
        <ele>251</ele>
        <time>2019-08-22T18:29:22Z</time>
      </trkpt>
      <trkpt lat="50.1745" lon="5.27736">
        <ele>250</ele>
        <time>2019-08-22T18:29:33Z</time>
      </trkpt>
      <trkpt lat="50.17505" lon="5.27819">
        <ele>256</ele>
        <time>2019-08-22T18:29:47Z</time>
      </trkpt>
      <trkpt lat="50.1756" lon="5.27902">
        <ele>258</ele>
        <time>2019-08-22T18:29:53Z</time>
      </trkpt>
      <trkpt lat="50.17589" lon="5.27947">
        <ele>258</ele>
        <time>2019-08-22T18:29:59Z</time>
      </trkpt>
      <trkpt lat="50.1768" lon="5.2804">
        <ele>259</ele>
        <time>2019-08-22T18:30:03Z</time>
      </trkpt>
      <trkpt lat="50.17771" lon="5.28134">
        <ele>258</ele>
        <time>2019-08-22T18:30:22Z</time>
      </trkpt>
      <trkpt lat="50.17862" lon="5.28227">
        <ele>261</ele>
        <time>2019-08-22T18:30:32Z</time>
      </trkpt>
      <trkpt lat="50.17952" lon="5.28321">
        <ele>263</ele>
        <time>2019-08-22T18:30:41Z</time>
      </trkpt>
      <trkpt lat="50.18065" lon="5.28449">
        <ele>268</ele>
        <time>2019-08-22T18:30:50Z</time>
      </trkpt>
      <trkpt lat="50.18153" lon="5.28552">
        <ele>269</ele>
        <time>2019-08-22T18:30:57Z</time>
      </trkpt>
      <trkpt lat="50.18289" lon="5.28752">
        <ele>273</ele>
        <time>2019-08-22T18:31:03Z</time>
      </trkpt>
      <trkpt lat="50.18367" lon="5.28885">
        <ele>275</ele>
        <time>2019-08-22T18:31:19Z</time>
      </trkpt>
      <trkpt lat="50.18567" lon="5.29242">
        <ele>277</ele>
        <time>2019-08-22T18:31:33Z</time>
      </trkpt>
      <trkpt lat="50.18691" lon="5.2947">
        <ele>272</ele>
        <time>2019-08-22T18:31:46Z</time>
      </trkpt>
      <trkpt lat="50.18852" lon="5.29825">
        <ele>266</ele>
        <time>2019-08-22T18:32:03Z</time>
      </trkpt>
      <trkpt lat="50.18956" lon="5.30074">
        <ele>257</ele>
        <time>2019-08-22T18:32:09Z</time>
      </trkpt>
      <trkpt lat="50.19134" lon="5.30269">
        <ele>263</ele>
        <time>2019-08-22T18:32:17Z</time>
      </trkpt>
      <trkpt lat="50.19295" lon="5.30424">
        <ele>261</ele>
        <time>2019-08-22T18:32:30Z</time>
      </trkpt>
      <trkpt lat="50.19536" lon="5.30497">
        <ele>259</ele>
        <time>2019-08-22T18:32:32Z</time>
      </trkpt>
      <trkpt lat="50.19869" lon="5.30605">
        <ele>272</ele>
        <time>2019-08-22T18:32:51Z</time>
      </trkpt>
      <trkpt lat="50.20212" lon="5.30815">
        <ele>276</ele>
        <time>2019-08-22T18:32:57Z</time>
      </trkpt>
      <trkpt lat="50.2058" lon="5.31194">
        <ele>280</ele>
        <time>2019-08-22T18:33:01Z</time>
      </trkpt>
      <trkpt lat="50.20868" lon="5.31337">
        <ele>280</ele>
        <time>2019-08-22T18:33:09Z</time>
      </trkpt>
      <trkpt lat="50.21051" lon="5.314">
        <ele>267</ele>
        <time>2019-08-22T18:33:29Z</time>
      </trkpt>
      <trkpt lat="50.21235" lon="5.31464">
        <ele>259</ele>
        <time>2019-08-22T18:33:41Z</time>
      </trkpt>
      <trkpt lat="50.21423" lon="5.31632">
        <ele>256</ele>
        <time>2019-08-22T18:33:47Z</time>
      </trkpt>
      <trkpt lat="50.21581" lon="5.31789">
        <ele>239</ele>
        <time>2019-08-22T18:34:06Z</time>
      </trkpt>
      <trkpt lat="50.2172" lon="5.32013">
        <ele>240</ele>
        <time>2019-08-22T18:34:13Z</time>
      </trkpt>
      <trkpt lat="50.21946" lon="5.32414">
        <ele>247</ele>
        <time>2019-08-22T18:34:26Z</time>
      </trkpt>
      <trkpt lat="50.22132" lon="5.32858">
        <ele>221</ele>
        <time>2019-08-22T18:34:40Z</time>
      </trkpt>
      <trkpt lat="50.22318" lon="5.33336">
        <ele>218</ele>
        <time>2019-08-22T18:34:47Z</time>
      </trkpt>
      <trkpt lat="50.23408" lon="5.35643">
        <ele>214</ele>
        <time>2019-08-22T18:34:50Z</time>
      </trkpt>
      <trkpt lat="50.23528" lon="5.35976">
        <ele>218</ele>
        <time>2019-08-22T18:34:57Z</time>
      </trkpt>
      <trkpt lat="50.23644" lon="5.36307">
        <ele>223</ele>
        <time>2019-08-22T18:35:16Z</time>
      </trkpt>
      <trkpt lat="50.2377" lon="5.36676">
        <ele>227</ele>
        <time>2019-08-22T18:35:22Z</time>
      </trkpt>
      <trkpt lat="50.23903" lon="5.37105">
        <ele>222</ele>
        <time>2019-08-22T18:35:28Z</time>
      </trkpt>
      <trkpt lat="50.23977" lon="5.3736">
        <ele>216</ele>
        <time>2019-08-22T18:35:30Z</time>
      </trkpt>
      <trkpt lat="50.24088" lon="5.37724">
        <ele>214</ele>
        <time>2019-08-22T18:35:47Z</time>
      </trkpt>
      <trkpt lat="50.24164" lon="5.3797">
        <ele>210</ele>
        <time>2019-08-22T18:35:55Z</time>
      </trkpt>
      <trkpt lat="50.2424" lon="5.38217">
        <ele>211</ele>
        <time>2019-08-22T18:36:14Z</time>
      </trkpt>
      <trkpt lat="50.24348" lon="5.38568">
        <ele>206</ele>
        <time>2019-08-22T18:36:19Z</time>
      </trkpt>
      <trkpt lat="50.2442" lon="5.38806">
        <ele>203</ele>
        <time>2019-08-22T18:36:31Z</time>
      </trkpt>
      <trkpt lat="50.24493" lon="5.39045">
        <ele>203</ele>
        <time>2019-08-22T18:36:50Z</time>
      </trkpt>
      <trkpt lat="50.24587" lon="5.39341">
        <ele>203</ele>
        <time>2019-08-22T18:37:10Z</time>
      </trkpt>
      <trkpt lat="50.24744" lon="5.39704">
        <ele>202</ele>
        <time>2019-08-22T18:37:24Z</time>
      </trkpt>
      <trkpt lat="50.24997" lon="5.40071">
        <ele>200</ele>
        <time>2019-08-22T18:37:26Z</time>
      </trkpt>
      <trkpt lat="50.25138" lon="5.4049">
        <ele>203</ele>
        <time>2019-08-22T18:37:29Z</time>
      </trkpt>
      <trkpt lat="50.25363" lon="5.4082">
        <ele>202</ele>
        <time>2019-08-22T18:37:36Z</time>
      </trkpt>
      <trkpt lat="50.25452" lon="5.41033">
        <ele>203</ele>
        <time>2019-08-22T18:37:39Z</time>
      </trkpt>
      <trkpt lat="50.25573" lon="5.4138">
        <ele>203</ele>
        <time>2019-08-22T18:37:47Z</time>
      </trkpt>
      <trkpt lat="50.25688" lon="5.41779">
        <ele>202</ele>
        <time>2019-08-22T18:38:06Z</time>
      </trkpt>
      <trkpt lat="50.25747" lon="5.41994">
        <ele>200</ele>
        <time>2019-08-22T18:38:12Z</time>
      </trkpt>
      <trkpt lat="50.25874" lon="5.42392">
        <ele>200</ele>
        <time>2019-08-22T18:38:21Z</time>
      </trkpt>
      <trkpt lat="50.25947" lon="5.42593">
        <ele>200</ele>
        <time>2019-08-22T18:38:32Z</time>
      </trkpt>
      <trkpt lat="50.26018" lon="5.42811">
        <ele>201</ele>
        <time>2019-08-22T18:38:37Z</time>
      </trkpt>
      <trkpt lat="50.26083" lon="5.43013">
        <ele>201</ele>
        <time>2019-08-22T18:38:54Z</time>
      </trkpt>
      <trkpt lat="50.26128" lon="5.43241">
        <ele>205</ele>
        <time>2019-08-22T18:39:04Z</time>
      </trkpt>
      <trkpt lat="50.26232" lon="5.43615">
        <ele>206</ele>
        <time>2019-08-22T18:39:12Z</time>
      </trkpt>
      <trkpt lat="50.26354" lon="5.43928">
        <ele>198</ele>
        <time>2019-08-22T18:39:28Z</time>
      </trkpt>
      <trkpt lat="50.26499" lon="5.44154">
        <ele>190</ele>
        <time>2019-08-22T18:39:37Z</time>
      </trkpt>
      <trkpt lat="50.26654" lon="5.44388">
        <ele>178</ele>
        <time>2019-08-22T18:39:57Z</time>
      </trkpt>
      <trkpt lat="50.26609" lon="5.45137">
        <ele>185</ele>
        <time>2019-08-22T18:40:03Z</time>
      </trkpt>
      <trkpt lat="50.26541" lon="5.45477">
        <ele>196</ele>
        <time>2019-08-22T18:40:12Z</time>
      </trkpt>
      <trkpt lat="50.26487" lon="5.45663">
        <ele>185</ele>
        <time>2019-08-22T18:40:18Z</time>
      </trkpt>
      <trkpt lat="50.26098" lon="5.46391">
        <ele>182</ele>
        <time>2019-08-22T18:40:36Z</time>
      </trkpt>
      <trkpt lat="50.25894" lon="5.46954">
        <ele>180</ele>
        <time>2019-08-22T18:40:47Z</time>
      </trkpt>
      <trkpt lat="50.25828" lon="5.4714">
        <ele>180</ele>
        <time>2019-08-22T18:40:59Z</time>
      </trkpt>
      <trkpt lat="50.25729" lon="5.47401">
        <ele>181</ele>
        <time>2019-08-22T18:41:05Z</time>
      </trkpt>
      <trkpt lat="50.25668" lon="5.47554">
        <ele>181</ele>
        <time>2019-08-22T18:41:16Z</time>
      </trkpt>
      <trkpt lat="50.25488" lon="5.47846">
        <ele>181</ele>
        <time>2019-08-22T18:41:26Z</time>
      </trkpt>
      <trkpt lat="50.25437" lon="5.48">
        <ele>188</ele>
        <time>2019-08-22T18:41:35Z</time>
      </trkpt>
      <trkpt lat="50.25391" lon="5.48157">
        <ele>184</ele>
        <time>2019-08-22T18:41:38Z</time>
      </trkpt>
      <trkpt lat="50.25315" lon="5.4839">
        <ele>194</ele>
        <time>2019-08-22T18:41:43Z</time>
      </trkpt>
      <trkpt lat="50.25263" lon="5.48536">
        <ele>207</ele>
        <time>2019-08-22T18:41:51Z</time>
      </trkpt>
      <trkpt lat="50.25191" lon="5.48683">
        <ele>206</ele>
        <time>2019-08-22T18:42:04Z</time>
      </trkpt>
      <trkpt lat="50.24898" lon="5.49279">
        <ele>205</ele>
        <time>2019-08-22T18:42:12Z</time>
      </trkpt>
      <trkpt lat="50.24823" lon="5.49409">
        <ele>197</ele>
        <time>2019-08-22T18:42:17Z</time>
      </trkpt>
      <trkpt lat="50.24731" lon="5.49509">
        <ele>190</ele>
        <time>2019-08-22T18:42:35Z</time>
      </trkpt>
      <trkpt lat="50.24569" lon="5.4962">
        <ele>193</ele>
        <time>2019-08-22T18:42:50Z</time>
      </trkpt>
      <trkpt lat="50.24441" lon="5.49701">
        <ele>194</ele>
        <time>2019-08-22T18:43:10Z</time>
      </trkpt>
      <trkpt lat="50.24357" lon="5.49763">
        <ele>193</ele>
        <time>2019-08-22T18:43:26Z</time>
      </trkpt>
      <trkpt lat="50.24284" lon="5.4985">
        <ele>188</ele>
        <time>2019-08-22T18:43:45Z</time>
      </trkpt>
      <trkpt lat="50.24211" lon="5.49937">
        <ele>187</ele>
        <time>2019-08-22T18:43:48Z</time>
      </trkpt>
      <trkpt lat="50.24116" lon="5.5007">
        <ele>187</ele>
        <time>2019-08-22T18:44:04Z</time>
      </trkpt>
      <trkpt lat="50.24055" lon="5.50163">
        <ele>188</ele>
        <time>2019-08-22T18:44:07Z</time>
      </trkpt>
      <trkpt lat="50.23995" lon="5.50255">
        <ele>188</ele>
        <time>2019-08-22T18:44:20Z</time>
      </trkpt>
      <trkpt lat="50.23934" lon="5.50347">
        <ele>188</ele>
        <time>2019-08-22T18:44:25Z</time>
      </trkpt>
      <trkpt lat="50.23875" lon="5.50432">
        <ele>188</ele>
        <time>2019-08-22T18:44:30Z</time>
      </trkpt>
      <trkpt lat="50.23828" lon="5.50497">
        <ele>188</ele>
        <time>2019-08-22T18:44:41Z</time>
      </trkpt>
      <trkpt lat="50.23781" lon="5.50563">
        <ele>192</ele>
        <time>2019-08-22T18:44:58Z</time>
      </trkpt>
      <trkpt lat="50.23734" lon="5.50628">
        <ele>188</ele>
        <time>2019-08-22T18:45:05Z</time>
      </trkpt>
      <trkpt lat="50.23686" lon="5.50691">
        <ele>189</ele>
        <time>2019-08-22T18:45:24Z</time>
      </trkpt>
      <trkpt lat="50.23636" lon="5.50751">
        <ele>189</ele>
        <time>2019-08-22T18:45:38Z</time>
      </trkpt>
      <trkpt lat="50.23603" lon="5.5079">
        <ele>192</ele>
        <time>2019-08-22T18:45:50Z</time>
      </trkpt>
      <trkpt lat="50.23552" lon="5.50866">
        <ele>191</ele>
        <time>2019-08-22T18:46:06Z</time>
      </trkpt>
      <trkpt lat="50.23446" lon="5.51025">
        <ele>191</ele>
        <time>2019-08-22T18:46:17Z</time>
      </trkpt>
      <trkpt lat="50.23339" lon="5.51184">
        <ele>190</ele>
        <time>2019-08-22T18:46:29Z</time>
      </trkpt>
      <trkpt lat="50.23232" lon="5.51342">
        <ele>191</ele>
        <time>2019-08-22T18:46:32Z</time>
      </trkpt>
      <trkpt lat="50.23129" lon="5.51508">
        <ele>192</ele>
        <time>2019-08-22T18:46:42Z</time>
      </trkpt>
      <trkpt lat="50.23042" lon="5.51691">
        <ele>203</ele>
        <time>2019-08-22T18:46:50Z</time>
      </trkpt>
      <trkpt lat="50.22985" lon="5.51904">
        <ele>202</ele>
        <time>2019-08-22T18:47:02Z</time>
      </trkpt>
      <trkpt lat="50.22911" lon="5.52101">
        <ele>210</ele>
        <time>2019-08-22T18:47:04Z</time>
      </trkpt>
      <trkpt lat="50.22787" lon="5.52225">
        <ele>214</ele>
        <time>2019-08-22T18:47:06Z</time>
      </trkpt>
      <trkpt lat="50.22659" lon="5.52338">
        <ele>210</ele>
        <time>2019-08-22T18:47:10Z</time>
      </trkpt>
      <trkpt lat="50.2253" lon="5.52446">
        <ele>212</ele>
        <time>2019-08-22T18:47:17Z</time>
      </trkpt>
      <trkpt lat="50.22386" lon="5.52479">
        <ele>205</ele>
        <time>2019-08-22T18:47:31Z</time>
      </trkpt>
      <trkpt lat="50.223" lon="5.52307">
        <ele>217</ele>
        <time>2019-08-22T18:47:44Z</time>
      </trkpt>
      <trkpt lat="50.22211" lon="5.52135">
        <ele>217</ele>
        <time>2019-08-22T18:48:01Z</time>
      </trkpt>
      <trkpt lat="50.22077" lon="5.5204">
        <ele>235</ele>
        <time>2019-08-22T18:48:03Z</time>
      </trkpt>
      <trkpt lat="50.21934" lon="5.51985">
        <ele>208</ele>
        <time>2019-08-22T18:48:08Z</time>
      </trkpt>
      <trkpt lat="50.2179" lon="5.51936">
        <ele>231</ele>
        <time>2019-08-22T18:48:24Z</time>
      </trkpt>
      <trkpt lat="50.21643" lon="5.51944">
        <ele>233</ele>
        <time>2019-08-22T18:48:28Z</time>
      </trkpt>
      <trkpt lat="50.21497" lon="5.51937">
        <ele>238</ele>
        <time>2019-08-22T18:48:32Z</time>
      </trkpt>
      <trkpt lat="50.2135" lon="5.51911">
        <ele>232</ele>
        <time>2019-08-22T18:48:34Z</time>
      </trkpt>
      <trkpt lat="50.21204" lon="5.51912">
        <ele>233</ele>
        <time>2019-08-22T18:48:51Z</time>
      </trkpt>
      <trkpt lat="50.21063" lon="5.51978">
        <ele>212</ele>
        <time>2019-08-22T18:49:05Z</time>
      </trkpt>
      <trkpt lat="50.20935" lon="5.5209">
        <ele>227</ele>
        <time>2019-08-22T18:49:17Z</time>
      </trkpt>
      <trkpt lat="50.2082" lon="5.52233">
        <ele>210</ele>
        <time>2019-08-22T18:49:32Z</time>
      </trkpt>
      <trkpt lat="50.2074" lon="5.52422">
        <ele>218</ele>
        <time>2019-08-22T18:49:52Z</time>
      </trkpt>
      <trkpt lat="50.20739" lon="5.52651">
        <ele>209</ele>
        <time>2019-08-22T18:50:10Z</time>
      </trkpt>
      <trkpt lat="50.20755" lon="5.52879">
        <ele>213</ele>
        <time>2019-08-22T18:50:21Z</time>
      </trkpt>
      <trkpt lat="50.20776" lon="5.53107">
        <ele>217</ele>
        <time>2019-08-22T18:50:24Z</time>
      </trkpt>
      <trkpt lat="50.20779" lon="5.53336">
        <ele>222</ele>
        <time>2019-08-22T18:50:30Z</time>
      </trkpt>
      <trkpt lat="50.20818" lon="5.53558">
        <ele>207</ele>
        <time>2019-08-22T18:50:40Z</time>
      </trkpt>
      <trkpt lat="50.20791" lon="5.53756">
        <ele>211</ele>
        <time>2019-08-22T18:50:55Z</time>
      </trkpt>
      <trkpt lat="50.20651" lon="5.53717">
        <ele>211</ele>
        <time>2019-08-22T18:51:09Z</time>
      </trkpt>
      <trkpt lat="50.20523" lon="5.53602">
        <ele>218</ele>
        <time>2019-08-22T18:51:21Z</time>
      </trkpt>
      <trkpt lat="50.20392" lon="5.53498">
        <ele>219</ele>
        <time>2019-08-22T18:51:34Z</time>
      </trkpt>
      <trkpt lat="50.2026" lon="5.53403">
        <ele>227</ele>
        <time>2019-08-22T18:51:43Z</time>
      </trkpt>
      <trkpt lat="50.20113" lon="5.53401">
        <ele>223</ele>
        <time>2019-08-22T18:51:58Z</time>
      </trkpt>
      <trkpt lat="50.19966" lon="5.53408">
        <ele>226</ele>
        <time>2019-08-22T18:52:07Z</time>
      </trkpt>
      <trkpt lat="50.19827" lon="5.5348">
        <ele>209</ele>
        <time>2019-08-22T18:52:17Z</time>
      </trkpt>
      <trkpt lat="50.19692" lon="5.53573">
        <ele>216</ele>
        <time>2019-08-22T18:52:19Z</time>
      </trkpt>
      <trkpt lat="50.19575" lon="5.5371">
        <ele>208</ele>
        <time>2019-08-22T18:52:33Z</time>
      </trkpt>
      <trkpt lat="50.19468" lon="5.53869">
        <ele>213</ele>
        <time>2019-08-22T18:52:53Z</time>
      </trkpt>
      <trkpt lat="50.19347" lon="5.53991">
        <ele>218</ele>
        <time>2019-08-22T18:53:03Z</time>
      </trkpt>
      <trkpt lat="50.192" lon="5.53993">
        <ele>220</ele>
        <time>2019-08-22T18:53:18Z</time>
      </trkpt>
      <trkpt lat="50.19052" lon="5.53987">
        <ele>214</ele>
        <time>2019-08-22T18:53:29Z</time>
      </trkpt>
      <trkpt lat="50.18918" lon="5.54052">
        <ele>218</ele>
        <time>2019-08-22T18:53:44Z</time>
      </trkpt>
      <trkpt lat="50.18799" lon="5.54187">
        <ele>224</ele>
        <time>2019-08-22T18:53:59Z</time>
      </trkpt>
      <trkpt lat="50.18683" lon="5.54329">
        <ele>228</ele>
        <time>2019-08-22T18:54:06Z</time>
      </trkpt>
      <trkpt lat="50.18589" lon="5.54505">
        <ele>232</ele>
        <time>2019-08-22T18:54:23Z</time>
      </trkpt>
      <trkpt lat="50.18525" lon="5.54712">
        <ele>233</ele>
        <time>2019-08-22T18:54:25Z</time>
      </trkpt>
      <trkpt lat="50.18474" lon="5.54927">
        <ele>215</ele>
        <time>2019-08-22T18:54:39Z</time>
      </trkpt>
      <trkpt lat="50.18431" lon="5.55147">
        <ele>224</ele>
        <time>2019-08-22T18:54:54Z</time>
      </trkpt>
      <trkpt lat="50.18384" lon="5.55365">
        <ele>217</ele>
        <time>2019-08-22T18:55:00Z</time>
      </trkpt>
      <trkpt lat="50.18324" lon="5.55576">
        <ele>221</ele>
        <time>2019-08-22T18:55:15Z</time>
      </trkpt>
      <trkpt lat="50.18253" lon="5.55777">
        <ele>227</ele>
        <time>2019-08-22T18:55:18Z</time>
      </trkpt>
      <trkpt lat="50.18191" lon="5.55985">
        <ele>243</ele>
        <time>2019-08-22T18:55:30Z</time>
      </trkpt>
      <trkpt lat="50.18134" lon="5.56197">
        <ele>226</ele>
        <time>2019-08-22T18:55:47Z</time>
      </trkpt>
      <trkpt lat="50.18072" lon="5.56406">
        <ele>238</ele>
        <time>2019-08-22T18:56:00Z</time>
      </trkpt>
      <trkpt lat="50.1801" lon="5.56615">
        <ele>273</ele>
        <time>2019-08-22T18:56:18Z</time>
      </trkpt>
      <trkpt lat="50.18029" lon="5.56837">
        <ele>280</ele>
        <time>2019-08-22T18:56:33Z</time>
      </trkpt>
      <trkpt lat="50.18112" lon="5.57025">
        <ele>261</ele>
        <time>2019-08-22T18:56:40Z</time>
      </trkpt>
      <trkpt lat="50.18229" lon="5.57161">
        <ele>244</ele>
        <time>2019-08-22T18:56:57Z</time>
      </trkpt>
      <trkpt lat="50.18361" lon="5.57235">
        <ele>239</ele>
        <time>2019-08-22T18:57:09Z</time>
      </trkpt>
      <trkpt lat="50.18299" lon="5.57386">
        <ele>232</ele>
        <time>2019-08-22T18:57:27Z</time>
      </trkpt>
      <trkpt lat="50.18155" lon="5.57354">
        <ele>260</ele>
        <time>2019-08-22T18:57:38Z</time>
      </trkpt>
      <trkpt lat="50.18027" lon="5.57434">
        <ele>252</ele>
        <time>2019-08-22T18:57:42Z</time>
      </trkpt>
      <trkpt lat="50.18029" lon="5.57605">
        <ele>226</ele>
        <time>2019-08-22T18:57:56Z</time>
      </trkpt>
      <trkpt lat="50.18114" lon="5.57568">
        <ele>220</ele>
        <time>2019-08-22T18:58:03Z</time>
      </trkpt>
    </trkseg>
  </trk>
</gpx>